WFL7610 VTBS-OMDW
Flight info
| Callsign | WFL7610 |
|---|---|
| Flight time | 6h 30m |
| Altitude | 38000 |
| Route | PASTO1E PASTO L301 BUSBO L505 EXOLU M638 KARKU L301 RAGMA N571 VUSET A454 PASOV M564 UMAMI |
| Aircraft | A333/H-SDE1E2E3FGHIJ4J5M1P2RWXYZ/LB1D1 |
Departure
| Time | 2026-04-21 10:09 |
|---|---|
| Airport | Suvarnabhumi Airport (VTBS) |
Arrival
| Time | 2026-04-21 16:39 |
|---|---|
| Airport | Al Maktoum International Airport (OMDW) |
| Time | Latitude | Longitude | Altitude | Speed | Heading |
|---|---|---|---|---|---|
| 2026-04-21 09:28 | 13.68330 | 100.74793 | 17 ft | 0 kts | 194° |
| 2026-04-21 09:55 | 13.68335 | 100.74795 | 17 ft | 2 kts | 195° |
| 2026-04-21 09:56 | 13.68354 | 100.74801 | 18 ft | 3 kts | 204° |
| 2026-04-21 09:56 | 13.68372 | 100.74810 | 18 ft | 3 kts | 213° |
| 2026-04-21 09:56 | 13.68388 | 100.74823 | 20 ft | 3 kts | 226° |
| 2026-04-21 09:56 | 13.68401 | 100.74838 | 19 ft | 3 kts | 240° |
| 2026-04-21 09:57 | 13.68407 | 100.74850 | 19 ft | 3 kts | 252° |
| 2026-04-21 09:57 | 13.68410 | 100.74870 | 17 ft | 3 kts | 275° |
| 2026-04-21 09:57 | 13.68409 | 100.74879 | 17 ft | 0 kts | 284° |
| 2026-04-21 09:59 | 13.68410 | 100.74877 | 17 ft | 1 kts | 284° |
| 2026-04-21 09:59 | 13.68415 | 100.74855 | 18 ft | 4 kts | 284° |
| 2026-04-21 10:00 | 13.68422 | 100.74824 | 17 ft | 5 kts | 284° |
| 2026-04-21 10:00 | 13.68431 | 100.74788 | 17 ft | 6 kts | 284° |
| 2026-04-21 10:00 | 13.68442 | 100.74745 | 17 ft | 7 kts | 284° |
| 2026-04-21 10:00 | 13.68454 | 100.74696 | 17 ft | 7 kts | 284° |
| 2026-04-21 10:01 | 13.68469 | 100.74638 | 17 ft | 10 kts | 284° |
| 2026-04-21 10:01 | 13.68487 | 100.74565 | 17 ft | 11 kts | 284° |
| 2026-04-21 10:01 | 13.68507 | 100.74488 | 17 ft | 12 kts | 284° |
| 2026-04-21 10:01 | 13.68528 | 100.74406 | 17 ft | 12 kts | 284° |
| 2026-04-21 10:02 | 13.68571 | 100.74230 | 17 ft | 13 kts | 284° |
| 2026-04-21 10:02 | 13.68605 | 100.74163 | 17 ft | 10 kts | 326° |
| 2026-04-21 10:02 | 13.68672 | 100.74164 | 17 ft | 10 kts | 14° |
| 2026-04-21 10:03 | 13.68741 | 100.74182 | 17 ft | 11 kts | 14° |
| 2026-04-21 10:03 | 13.68816 | 100.74202 | 17 ft | 12 kts | 14° |
| 2026-04-21 10:03 | 13.68897 | 100.74223 | 17 ft | 12 kts | 13° |
| 2026-04-21 10:03 | 13.68982 | 100.74245 | 17 ft | 13 kts | 15° |
| 2026-04-21 10:04 | 13.69072 | 100.74269 | 17 ft | 14 kts | 14° |
| 2026-04-21 10:04 | 13.69169 | 100.74295 | 17 ft | 15 kts | 14° |
| 2026-04-21 10:04 | 13.69271 | 100.74322 | 17 ft | 15 kts | 14° |
| 2026-04-21 10:04 | 13.69378 | 100.74349 | 17 ft | 16 kts | 14° |
| 2026-04-21 10:05 | 13.69489 | 100.74378 | 17 ft | 17 kts | 14° |
| 2026-04-21 10:05 | 13.69602 | 100.74408 | 17 ft | 17 kts | 14° |
| 2026-04-21 10:05 | 13.69720 | 100.74439 | 17 ft | 18 kts | 14° |
| 2026-04-21 10:05 | 13.69842 | 100.74471 | 17 ft | 18 kts | 15° |
| 2026-04-21 10:06 | 13.69967 | 100.74505 | 17 ft | 19 kts | 14° |
| 2026-04-21 10:06 | 13.70096 | 100.74539 | 17 ft | 19 kts | 14° |
| 2026-04-21 10:06 | 13.70225 | 100.74572 | 17 ft | 15 kts | 14° |
| 2026-04-21 10:06 | 13.70290 | 100.74567 | 17 ft | 8 kts | 323° |
| 2026-04-21 10:07 | 13.70316 | 100.74513 | 17 ft | 9 kts | 287° |
| 2026-04-21 10:07 | 13.70332 | 100.74451 | 17 ft | 9 kts | 284° |
| 2026-04-21 10:07 | 13.70345 | 100.74386 | 18 ft | 9 kts | 270° |
| 2026-04-21 10:07 | 13.70328 | 100.74328 | 19 ft | 8 kts | 240° |
| 2026-04-21 10:08 | 13.70282 | 100.74298 | 18 ft | 10 kts | 197° |
| 2026-04-21 10:08 | 13.70093 | 100.74247 | 18 ft | 55 kts | 194° |
| 2026-04-21 10:08 | 13.69539 | 100.74103 | 14 ft | 109 kts | 194° |
| 2026-04-21 10:08 | 13.68643 | 100.73867 | 20 ft | 156 kts | 194° |
| 2026-04-21 10:09 | 13.67488 | 100.73563 | 361 ft | 179 kts | 196° |
| 2026-04-21 10:09 | 13.66196 | 100.73164 | 571 ft | 212 kts | 197° |
| 2026-04-21 10:09 | 13.64844 | 100.72578 | 1466 ft | 205 kts | 204° |
| 2026-04-21 10:09 | 13.63507 | 100.72149 | 2305 ft | 203 kts | 192° |
| 2026-04-21 10:10 | 13.62075 | 100.71833 | 2565 ft | 218 kts | 189° |
| 2026-04-21 10:10 | 13.60544 | 100.71512 | 2714 ft | 236 kts | 189° |
| 2026-04-21 10:10 | 13.58873 | 100.71149 | 2939 ft | 251 kts | 190° |
| 2026-04-21 10:10 | 13.57186 | 100.70613 | 3321 ft | 258 kts | 204° |
| 2026-04-21 10:11 | 13.55677 | 100.69561 | 3652 ft | 268 kts | 225° |
| 2026-04-21 10:11 | 13.54729 | 100.67911 | 4109 ft | 272 kts | 253° |
| 2026-04-21 10:11 | 13.54672 | 100.65986 | 4602 ft | 274 kts | 283° |
| 2026-04-21 10:11 | 13.55274 | 100.64154 | 5125 ft | 273 kts | 290° |
| 2026-04-21 10:12 | 13.55930 | 100.62490 | 5592 ft | 274 kts | 291° |
| 2026-04-21 10:12 | 13.56654 | 100.60675 | 6087 ft | 275 kts | 291° |
| 2026-04-21 10:12 | 13.57384 | 100.58853 | 6622 ft | 274 kts | 295° |
| 2026-04-21 10:12 | 13.58148 | 100.57049 | 7043 ft | 273 kts | 307° |
| 2026-04-21 10:13 | 13.59047 | 100.55319 | 7198 ft | 280 kts | 313° |
| 2026-04-21 10:13 | 13.60038 | 100.53569 | 7248 ft | 290 kts | 308° |
| 2026-04-21 10:13 | 13.60943 | 100.51707 | 7598 ft | 289 kts | 292° |
| 2026-04-21 10:13 | 13.61556 | 100.49762 | 8249 ft | 284 kts | 285° |
| 2026-04-21 10:14 | 13.62120 | 100.47814 | 8745 ft | 285 kts | 287° |
| 2026-04-21 10:14 | 13.62748 | 100.45871 | 9242 ft | 288 kts | 289° |
| 2026-04-21 10:14 | 13.63435 | 100.43921 | 9707 ft | 291 kts | 290° |
| 2026-04-21 10:14 | 13.64169 | 100.41944 | 9986 ft | 301 kts | 290° |
| 2026-04-21 10:15 | 13.64949 | 100.39896 | 10153 ft | 314 kts | 291° |
| 2026-04-21 10:15 | 13.65770 | 100.37767 | 10319 ft | 326 kts | 291° |
| 2026-04-21 10:15 | 13.66548 | 100.35763 | 10446 ft | 337 kts | 291° |
| 2026-04-21 10:15 | 13.67436 | 100.33483 | 10611 ft | 348 kts | 291° |
| 2026-04-21 10:16 | 13.68346 | 100.31152 | 10918 ft | 352 kts | 291° |
| 2026-04-21 10:16 | 13.69264 | 100.28805 | 11339 ft | 354 kts | 291° |
| 2026-04-21 10:16 | 13.70187 | 100.26447 | 11718 ft | 357 kts | 291° |
| 2026-04-21 10:16 | 13.71120 | 100.24068 | 12106 ft | 360 kts | 291° |
| 2026-04-21 10:17 | 13.72059 | 100.21676 | 12530 ft | 361 kts | 291° |
| 2026-04-21 10:17 | 13.73002 | 100.19273 | 12926 ft | 364 kts | 291° |
| 2026-04-21 10:17 | 13.73951 | 100.16855 | 13326 ft | 366 kts | 291° |
| 2026-04-21 10:17 | 13.74909 | 100.14413 | 13683 ft | 369 kts | 291° |
| 2026-04-21 10:18 | 13.75874 | 100.11953 | 14030 ft | 371 kts | 291° |
| 2026-04-21 10:18 | 13.76830 | 100.09515 | 14366 ft | 374 kts | 291° |
| 2026-04-21 10:18 | 13.77807 | 100.07023 | 14705 ft | 376 kts | 291° |
| 2026-04-21 10:18 | 13.78787 | 100.04523 | 15050 ft | 378 kts | 292° |
| 2026-04-21 10:19 | 13.79769 | 100.02015 | 15388 ft | 380 kts | 292° |
| 2026-04-21 10:19 | 13.80760 | 99.99487 | 15732 ft | 382 kts | 292° |
| 2026-04-21 10:19 | 13.81753 | 99.96947 | 16081 ft | 384 kts | 292° |
| 2026-04-21 10:19 | 13.82755 | 99.94388 | 16397 ft | 386 kts | 292° |
| 2026-04-21 10:20 | 13.83761 | 99.91818 | 16713 ft | 388 kts | 292° |
| 2026-04-21 10:20 | 13.84773 | 99.89229 | 17042 ft | 390 kts | 293° |
| 2026-04-21 10:20 | 13.85790 | 99.86629 | 17364 ft | 393 kts | 292° |
| 2026-04-21 10:20 | 13.86813 | 99.84012 | 17665 ft | 395 kts | 292° |
| 2026-04-21 10:21 | 13.87829 | 99.81412 | 17919 ft | 397 kts | 293° |
| 2026-04-21 10:21 | 13.88865 | 99.78760 | 18164 ft | 400 kts | 292° |
| 2026-04-21 10:21 | 13.89907 | 99.76091 | 18415 ft | 401 kts | 293° |
| 2026-04-21 10:21 | 13.90952 | 99.73412 | 18682 ft | 403 kts | 293° |
| 2026-04-21 10:22 | 13.91999 | 99.70727 | 18936 ft | 405 kts | 292° |
| 2026-04-21 10:22 | 13.93050 | 99.68032 | 19184 ft | 406 kts | 293° |
| 2026-04-21 10:22 | 13.94104 | 99.65328 | 19413 ft | 408 kts | 292° |
| 2026-04-21 10:22 | 13.95147 | 99.62652 | 19671 ft | 409 kts | 292° |
| 2026-04-21 10:23 | 13.96208 | 99.59926 | 19910 ft | 411 kts | 293° |
| 2026-04-21 10:23 | 13.97274 | 99.57190 | 20142 ft | 412 kts | 292° |
| 2026-04-21 10:23 | 13.98344 | 99.54442 | 20389 ft | 414 kts | 293° |
| 2026-04-21 10:23 | 13.99393 | 99.51671 | 20627 ft | 416 kts | 290° |
| 2026-04-21 10:24 | 14.00125 | 99.48780 | 20862 ft | 419 kts | 281° |
| 2026-04-21 10:24 | 14.00556 | 99.45803 | 21072 ft | 421 kts | 277° |
| 2026-04-21 10:24 | 14.00839 | 99.42833 | 21324 ft | 421 kts | 275° |
| 2026-04-21 10:24 | 14.01068 | 99.39816 | 21550 ft | 423 kts | 275° |
| 2026-04-21 10:25 | 14.01289 | 99.36790 | 21749 ft | 425 kts | 275° |
| 2026-04-21 10:25 | 14.01527 | 99.33748 | 21954 ft | 426 kts | 276° |
| 2026-04-21 10:25 | 14.01785 | 99.30701 | 22178 ft | 428 kts | 276° |
| 2026-04-21 10:25 | 14.02059 | 99.27646 | 22388 ft | 428 kts | 276° |
| 2026-04-21 10:26 | 14.02345 | 99.24580 | 22597 ft | 430 kts | 276° |
| 2026-04-21 10:26 | 14.02637 | 99.21512 | 22794 ft | 432 kts | 276° |
| 2026-04-21 10:26 | 14.02933 | 99.18425 | 22977 ft | 433 kts | 276° |
| 2026-04-21 10:26 | 14.03228 | 99.15338 | 23180 ft | 434 kts | 276° |
| 2026-04-21 10:27 | 14.03524 | 99.12240 | 23385 ft | 435 kts | 276° |
| 2026-04-21 10:27 | 14.03818 | 99.09134 | 23538 ft | 436 kts | 276° |
| 2026-04-21 10:27 | 14.04113 | 99.06015 | 23692 ft | 438 kts | 276° |
| 2026-04-21 10:27 | 14.04408 | 99.02891 | 23860 ft | 439 kts | 276° |
| 2026-04-21 10:28 | 14.04703 | 98.99762 | 24056 ft | 439 kts | 276° |
| 2026-04-21 10:28 | 14.04987 | 98.96633 | 24257 ft | 439 kts | 275° |
| 2026-04-21 10:28 | 14.05224 | 98.93497 | 24436 ft | 439 kts | 275° |
| 2026-04-21 10:28 | 14.05431 | 98.90358 | 24602 ft | 440 kts | 275° |
| 2026-04-21 10:29 | 14.05627 | 98.87209 | 24762 ft | 441 kts | 274° |
| 2026-04-21 10:29 | 14.05817 | 98.84093 | 24935 ft | 441 kts | 274° |
| 2026-04-21 10:29 | 14.06012 | 98.80938 | 25091 ft | 442 kts | 275° |
| 2026-04-21 10:29 | 14.06211 | 98.77776 | 25298 ft | 442 kts | 274° |
| 2026-04-21 10:30 | 14.06412 | 98.74613 | 25476 ft | 442 kts | 275° |
| 2026-04-21 10:30 | 14.06615 | 98.71451 | 25639 ft | 443 kts | 274° |
| 2026-04-21 10:30 | 14.06819 | 98.68276 | 25810 ft | 443 kts | 274° |
| 2026-04-21 10:30 | 14.07023 | 98.65097 | 25994 ft | 443 kts | 275° |
| 2026-04-21 10:31 | 14.07224 | 98.61964 | 26188 ft | 443 kts | 275° |
| 2026-04-21 10:31 | 14.07428 | 98.58787 | 26375 ft | 443 kts | 274° |
| 2026-04-21 10:31 | 14.07632 | 98.55610 | 26524 ft | 445 kts | 274° |
| 2026-04-21 10:31 | 14.07837 | 98.52412 | 26626 ft | 447 kts | 274° |
| 2026-04-21 10:32 | 14.08040 | 98.49215 | 26839 ft | 446 kts | 275° |
| 2026-04-21 10:32 | 14.08242 | 98.46019 | 27068 ft | 445 kts | 275° |
| 2026-04-21 10:32 | 14.08441 | 98.42870 | 27219 ft | 446 kts | 275° |
| 2026-04-21 10:32 | 14.08642 | 98.39677 | 27320 ft | 449 kts | 275° |
| 2026-04-21 10:33 | 14.08845 | 98.36470 | 27483 ft | 449 kts | 275° |
| 2026-04-21 10:33 | 14.09048 | 98.33256 | 27674 ft | 449 kts | 274° |
| 2026-04-21 10:33 | 14.09250 | 98.30051 | 27952 ft | 447 kts | 274° |
| 2026-04-21 10:34 | 14.09655 | 98.23607 | 28085 ft | 453 kts | 275° |
| 2026-04-21 10:34 | 14.10063 | 98.20388 | 28308 ft | 451 kts | 282° |
| 2026-04-21 10:34 | 14.10728 | 98.17230 | 28490 ft | 451 kts | 283° |
| 2026-04-21 10:34 | 14.11449 | 98.14127 | 28682 ft | 451 kts | 284° |
| 2026-04-21 10:35 | 14.12225 | 98.10973 | 28760 ft | 453 kts | 284° |
| 2026-04-21 10:35 | 14.13830 | 98.04649 | 28971 ft | 456 kts | 285° |
| 2026-04-21 10:35 | 14.14633 | 98.01491 | 29155 ft | 456 kts | 285° |
| 2026-04-21 10:36 | 14.15435 | 97.98323 | 29406 ft | 454 kts | 284° |
| 2026-04-21 10:36 | 14.17022 | 97.92012 | 29461 ft | 461 kts | 284° |
| 2026-04-21 10:36 | 14.17824 | 97.88808 | 29590 ft | 462 kts | 284° |
| 2026-04-21 10:37 | 14.18626 | 97.85597 | 29743 ft | 462 kts | 284° |
| 2026-04-21 10:37 | 14.19426 | 97.82387 | 29879 ft | 463 kts | 284° |
| 2026-04-21 10:37 | 14.20228 | 97.79172 | 29989 ft | 464 kts | 284° |
| 2026-04-21 10:37 | 14.21032 | 97.75944 | 30092 ft | 465 kts | 284° |
| 2026-04-21 10:38 | 14.21839 | 97.72708 | 30199 ft | 465 kts | 284° |
| 2026-04-21 10:38 | 14.22644 | 97.69475 | 30310 ft | 466 kts | 284° |
| 2026-04-21 10:38 | 14.23440 | 97.66276 | 30420 ft | 467 kts | 284° |
| 2026-04-21 10:39 | 14.25058 | 97.59769 | 30626 ft | 468 kts | 284° |
| 2026-04-21 10:39 | 14.26684 | 97.53229 | 30756 ft | 472 kts | 283° |
| 2026-04-21 10:39 | 14.27499 | 97.49947 | 30864 ft | 472 kts | 283° |
| 2026-04-21 10:40 | 14.28301 | 97.46710 | 31003 ft | 472 kts | 283° |
| 2026-04-21 10:40 | 14.29929 | 97.40136 | 31175 ft | 474 kts | 283° |
| 2026-04-21 10:40 | 14.30748 | 97.36830 | 31279 ft | 475 kts | 283° |
| 2026-04-21 10:41 | 14.31567 | 97.33516 | 31411 ft | 476 kts | 283° |
| 2026-04-21 10:41 | 14.32388 | 97.30196 | 31550 ft | 476 kts | 283° |
| 2026-04-21 10:41 | 14.33205 | 97.26889 | 31768 ft | 476 kts | 283° |
| 2026-04-21 10:41 | 14.34021 | 97.23585 | 31981 ft | 475 kts | 283° |
| 2026-04-21 10:42 | 14.34837 | 97.20284 | 32195 ft | 475 kts | 283° |
| 2026-04-21 10:42 | 14.35652 | 97.16983 | 32473 ft | 474 kts | 283° |
| 2026-04-21 10:42 | 14.36191 | 97.14805 | 32668 ft | 473 kts | 283° |
| 2026-04-21 10:42 | 14.37003 | 97.11515 | 32939 ft | 472 kts | 283° |
| 2026-04-21 10:43 | 14.38078 | 97.07160 | 33256 ft | 472 kts | 283° |
| 2026-04-21 10:43 | 14.38887 | 97.03880 | 33510 ft | 472 kts | 283° |
| 2026-04-21 10:43 | 14.39435 | 97.01656 | 33683 ft | 472 kts | 283° |
| 2026-04-21 10:43 | 14.40233 | 96.98416 | 33949 ft | 471 kts | 283° |
| 2026-04-21 10:44 | 14.41040 | 96.95141 | 34231 ft | 469 kts | 283° |
| 2026-04-21 10:44 | 14.41845 | 96.91872 | 34464 ft | 469 kts | 283° |
| 2026-04-21 10:44 | 14.42648 | 96.88604 | 34698 ft | 469 kts | 283° |
| 2026-04-21 10:44 | 14.43450 | 96.85342 | 34926 ft | 468 kts | 283° |
| 2026-04-21 10:45 | 14.44243 | 96.82117 | 35156 ft | 468 kts | 283° |
| 2026-04-21 10:45 | 14.45043 | 96.78854 | 35377 ft | 468 kts | 283° |
| 2026-04-21 10:45 | 14.45843 | 96.75593 | 35606 ft | 467 kts | 283° |
| 2026-04-21 10:45 | 14.46639 | 96.72346 | 35855 ft | 466 kts | 283° |
| 2026-04-21 10:46 | 14.47424 | 96.69141 | 36088 ft | 466 kts | 283° |
| 2026-04-21 10:46 | 14.48217 | 96.65901 | 36325 ft | 465 kts | 283° |
| 2026-04-21 10:46 | 14.49008 | 96.62670 | 36662 ft | 461 kts | 283° |
| 2026-04-21 10:46 | 14.49792 | 96.59464 | 36923 ft | 459 kts | 283° |
| 2026-04-21 10:47 | 14.50574 | 96.56264 | 37155 ft | 459 kts | 283° |
| 2026-04-21 10:47 | 14.51356 | 96.53065 | 37357 ft | 458 kts | 283° |
| 2026-04-21 10:47 | 14.52136 | 96.49868 | 37562 ft | 458 kts | 283° |
| 2026-04-21 10:47 | 14.52901 | 96.46729 | 37758 ft | 457 kts | 282° |
| 2026-04-21 10:48 | 14.53679 | 96.43534 | 37801 ft | 458 kts | 282° |
| 2026-04-21 10:48 | 14.55229 | 96.37157 | 37796 ft | 457 kts | 282° |
| 2026-04-21 10:49 | 14.56766 | 96.30821 | 37801 ft | 456 kts | 282° |
| 2026-04-21 10:49 | 14.58307 | 96.24462 | 37801 ft | 456 kts | 282° |
| 2026-04-21 10:50 | 14.59845 | 96.18101 | 37799 ft | 456 kts | 282° |
| 2026-04-21 10:50 | 14.61381 | 96.11750 | 37802 ft | 456 kts | 282° |
| 2026-04-21 10:51 | 14.62917 | 96.05389 | 37798 ft | 456 kts | 282° |
| 2026-04-21 10:51 | 14.64454 | 95.99011 | 37807 ft | 456 kts | 282° |
| 2026-04-21 10:52 | 14.65976 | 95.92686 | 37802 ft | 456 kts | 282° |
| 2026-04-21 10:52 | 14.67509 | 95.86313 | 37805 ft | 456 kts | 282° |
| 2026-04-21 10:53 | 14.69038 | 95.79949 | 37805 ft | 457 kts | 282° |
| 2026-04-21 10:53 | 14.70566 | 95.73576 | 37799 ft | 457 kts | 282° |
| 2026-04-21 10:54 | 14.72093 | 95.67201 | 37802 ft | 457 kts | 282° |
| 2026-04-21 10:54 | 14.73608 | 95.60868 | 37800 ft | 457 kts | 282° |
| 2026-04-21 10:55 | 14.75132 | 95.54490 | 37808 ft | 457 kts | 282° |
| 2026-04-21 10:55 | 14.76655 | 95.48107 | 37808 ft | 457 kts | 282° |
| 2026-04-21 10:56 | 14.78164 | 95.41773 | 37806 ft | 457 kts | 282° |
| 2026-04-21 10:56 | 14.79683 | 95.35394 | 37806 ft | 457 kts | 282° |
| 2026-04-21 10:57 | 14.81202 | 95.29003 | 37809 ft | 457 kts | 282° |
| 2026-04-21 10:57 | 14.82719 | 95.22612 | 37809 ft | 458 kts | 282° |
| 2026-04-21 10:58 | 14.84226 | 95.16252 | 37807 ft | 458 kts | 282° |
| 2026-04-21 10:58 | 14.85744 | 95.09841 | 37805 ft | 458 kts | 282° |
| 2026-04-21 10:59 | 14.87260 | 95.03433 | 37802 ft | 458 kts | 282° |
| 2026-04-21 10:59 | 14.88762 | 94.97071 | 37809 ft | 457 kts | 282° |
| 2026-04-21 11:00 | 14.90267 | 94.90684 | 37807 ft | 454 kts | 282° |
| 2026-04-21 11:00 | 14.91754 | 94.84372 | 37809 ft | 454 kts | 282° |
| 2026-04-21 11:01 | 14.93246 | 94.78030 | 37813 ft | 454 kts | 282° |
| 2026-04-21 11:01 | 14.94738 | 94.71679 | 37810 ft | 454 kts | 282° |
| 2026-04-21 11:02 | 14.96971 | 94.62155 | 37814 ft | 454 kts | 282° |
| 2026-04-21 11:02 | 14.98450 | 94.55839 | 37804 ft | 454 kts | 282° |
| 2026-04-21 11:03 | 14.99939 | 94.49470 | 37812 ft | 455 kts | 282° |
| 2026-04-21 11:03 | 15.01427 | 94.43098 | 37815 ft | 455 kts | 282° |
| 2026-04-21 11:04 | 15.02904 | 94.36764 | 37820 ft | 455 kts | 282° |
| 2026-04-21 11:04 | 15.04390 | 94.30388 | 37819 ft | 455 kts | 282° |
| 2026-04-21 11:05 | 15.05872 | 94.24013 | 37815 ft | 455 kts | 282° |
| 2026-04-21 11:05 | 15.07343 | 94.17680 | 37812 ft | 455 kts | 282° |
| 2026-04-21 11:06 | 15.08825 | 94.11292 | 37821 ft | 456 kts | 282° |
| 2026-04-21 11:06 | 15.10306 | 94.04900 | 37818 ft | 456 kts | 282° |
| 2026-04-21 11:07 | 15.11784 | 93.98509 | 37808 ft | 456 kts | 282° |
| 2026-04-21 11:07 | 15.13250 | 93.92164 | 37809 ft | 456 kts | 282° |
| 2026-04-21 11:08 | 15.14725 | 93.85770 | 37820 ft | 456 kts | 281° |
| 2026-04-21 11:08 | 15.16198 | 93.79379 | 37812 ft | 456 kts | 281° |
| 2026-04-21 11:09 | 15.17673 | 93.72968 | 37818 ft | 457 kts | 281° |
| 2026-04-21 11:09 | 15.19133 | 93.66610 | 37821 ft | 457 kts | 281° |
| 2026-04-21 11:10 | 15.20603 | 93.60203 | 37821 ft | 457 kts | 281° |
| 2026-04-21 11:10 | 15.22069 | 93.53801 | 37819 ft | 457 kts | 281° |
| 2026-04-21 11:11 | 15.23535 | 93.47394 | 37815 ft | 457 kts | 281° |
| 2026-04-21 11:11 | 15.24991 | 93.41026 | 37821 ft | 457 kts | 281° |
| 2026-04-21 11:12 | 15.26454 | 93.34614 | 37822 ft | 457 kts | 281° |
| 2026-04-21 11:12 | 15.27916 | 93.28198 | 37820 ft | 457 kts | 281° |
| 2026-04-21 11:13 | 15.29366 | 93.21830 | 37820 ft | 457 kts | 281° |
| 2026-04-21 11:13 | 15.30822 | 93.15423 | 37823 ft | 457 kts | 281° |
| 2026-04-21 11:14 | 15.32277 | 93.09011 | 37820 ft | 457 kts | 281° |
| 2026-04-21 11:14 | 15.33729 | 93.02602 | 37824 ft | 457 kts | 281° |
| 2026-04-21 11:15 | 15.35182 | 92.96180 | 37816 ft | 456 kts | 281° |
| 2026-04-21 11:15 | 15.36621 | 92.89811 | 37822 ft | 456 kts | 281° |
| 2026-04-21 11:16 | 15.38069 | 92.83397 | 37821 ft | 456 kts | 281° |
| 2026-04-21 11:16 | 15.39513 | 92.76989 | 37824 ft | 456 kts | 281° |
| 2026-04-21 11:17 | 15.40948 | 92.70613 | 37813 ft | 456 kts | 281° |
| 2026-04-21 11:17 | 15.42391 | 92.64192 | 37819 ft | 456 kts | 281° |
| 2026-04-21 11:18 | 15.43913 | 92.57798 | 37816 ft | 456 kts | 282° |
| 2026-04-21 11:18 | 15.45492 | 92.51462 | 37824 ft | 456 kts | 282° |
| 2026-04-21 11:19 | 15.47086 | 92.45075 | 37822 ft | 456 kts | 282° |
| 2026-04-21 11:19 | 15.48663 | 92.38701 | 37820 ft | 456 kts | 282° |
| 2026-04-21 11:20 | 15.50235 | 92.32319 | 37818 ft | 456 kts | 282° |
| 2026-04-21 11:20 | 15.51806 | 92.25930 | 37826 ft | 457 kts | 282° |
| 2026-04-21 11:21 | 15.53367 | 92.19572 | 37821 ft | 457 kts | 282° |
| 2026-04-21 11:21 | 15.54937 | 92.13169 | 37819 ft | 457 kts | 282° |
| 2026-04-21 11:22 | 15.56503 | 92.06776 | 37818 ft | 457 kts | 282° |
| 2026-04-21 11:22 | 15.58069 | 92.00374 | 37812 ft | 457 kts | 282° |
| 2026-04-21 11:23 | 15.59609 | 91.94015 | 37809 ft | 457 kts | 282° |
| 2026-04-21 11:23 | 15.61150 | 91.87606 | 37822 ft | 457 kts | 281° |
| 2026-04-21 11:24 | 15.62689 | 91.81196 | 37816 ft | 457 kts | 281° |
| 2026-04-21 11:24 | 15.64229 | 91.74781 | 37817 ft | 456 kts | 281° |
| 2026-04-21 11:25 | 15.65749 | 91.68439 | 37821 ft | 454 kts | 281° |
| 2026-04-21 11:25 | 15.67275 | 91.62067 | 37819 ft | 454 kts | 281° |
| 2026-04-21 11:26 | 15.68789 | 91.55739 | 37813 ft | 454 kts | 281° |
| 2026-04-21 11:26 | 15.70325 | 91.49370 | 37805 ft | 454 kts | 281° |
| 2026-04-21 11:27 | 15.71857 | 91.43008 | 37817 ft | 454 kts | 281° |
| 2026-04-21 11:27 | 15.73376 | 91.36653 | 37824 ft | 453 kts | 281° |
| 2026-04-21 11:28 | 15.74889 | 91.30292 | 37821 ft | 453 kts | 281° |
| 2026-04-21 11:28 | 15.76400 | 91.23928 | 37813 ft | 453 kts | 281° |
| 2026-04-21 11:29 | 15.77901 | 91.17599 | 37820 ft | 454 kts | 281° |
| 2026-04-21 11:29 | 15.79409 | 91.11228 | 37811 ft | 453 kts | 281° |
| 2026-04-21 11:30 | 15.80904 | 91.04911 | 37808 ft | 453 kts | 281° |
| 2026-04-21 11:30 | 15.82404 | 90.98559 | 37818 ft | 453 kts | 281° |
| 2026-04-21 11:31 | 15.83652 | 90.93271 | 37805 ft | 453 kts | 281° |
| 2026-04-21 11:31 | 15.85150 | 90.86913 | 37814 ft | 453 kts | 281° |
| 2026-04-21 11:32 | 15.86639 | 90.80587 | 37823 ft | 453 kts | 281° |
| 2026-04-21 11:32 | 15.88137 | 90.74210 | 37829 ft | 453 kts | 280° |
| 2026-04-21 11:33 | 15.89632 | 90.67843 | 37812 ft | 453 kts | 280° |
| 2026-04-21 11:33 | 15.91116 | 90.61510 | 37820 ft | 453 kts | 280° |
| 2026-04-21 11:34 | 15.92608 | 90.55133 | 37813 ft | 453 kts | 280° |
| 2026-04-21 11:34 | 15.94087 | 90.48804 | 37813 ft | 453 kts | 280° |
| 2026-04-21 11:35 | 15.95573 | 90.42435 | 37814 ft | 453 kts | 280° |
| 2026-04-21 11:35 | 15.97061 | 90.36051 | 37815 ft | 453 kts | 280° |
| 2026-04-21 11:36 | 15.98533 | 90.29729 | 37820 ft | 453 kts | 280° |
| 2026-04-21 11:36 | 16.00012 | 90.23361 | 37808 ft | 452 kts | 280° |
| 2026-04-21 11:37 | 16.01487 | 90.17010 | 37820 ft | 450 kts | 280° |
| 2026-04-21 11:37 | 16.02991 | 90.10702 | 37815 ft | 450 kts | 281° |
| 2026-04-21 11:38 | 16.04518 | 90.04393 | 37810 ft | 450 kts | 281° |
| 2026-04-21 11:38 | 16.06033 | 89.98126 | 37809 ft | 450 kts | 280° |
| 2026-04-21 11:39 | 16.07551 | 89.91816 | 37812 ft | 449 kts | 280° |
| 2026-04-21 11:39 | 16.09064 | 89.85509 | 37805 ft | 449 kts | 280° |
| 2026-04-21 11:40 | 16.10575 | 89.79204 | 37804 ft | 449 kts | 280° |
| 2026-04-21 11:40 | 16.12086 | 89.72891 | 37812 ft | 449 kts | 280° |
| 2026-04-21 11:41 | 16.13584 | 89.66622 | 37807 ft | 449 kts | 280° |
| 2026-04-21 11:41 | 16.15093 | 89.60299 | 37816 ft | 449 kts | 280° |
| 2026-04-21 11:42 | 16.16597 | 89.53986 | 37802 ft | 449 kts | 280° |
| 2026-04-21 11:42 | 16.18099 | 89.47671 | 37809 ft | 449 kts | 280° |
| 2026-04-21 11:43 | 16.19589 | 89.41402 | 37803 ft | 449 kts | 280° |
| 2026-04-21 11:43 | 16.21088 | 89.35085 | 37799 ft | 449 kts | 280° |
| 2026-04-21 11:44 | 16.22586 | 89.28770 | 37802 ft | 449 kts | 280° |
| 2026-04-21 11:44 | 16.24082 | 89.22447 | 37803 ft | 449 kts | 279° |
| 2026-04-21 11:45 | 16.25564 | 89.16177 | 37812 ft | 449 kts | 279° |
| 2026-04-21 11:45 | 16.27056 | 89.09855 | 37813 ft | 449 kts | 279° |
| 2026-04-21 11:46 | 16.28576 | 89.03532 | 37801 ft | 449 kts | 280° |
| 2026-04-21 11:46 | 16.30105 | 88.97269 | 37818 ft | 449 kts | 280° |
| 2026-04-21 11:47 | 16.31646 | 88.90952 | 37804 ft | 449 kts | 280° |
| 2026-04-21 11:47 | 16.33180 | 88.84644 | 37806 ft | 449 kts | 280° |
| 2026-04-21 11:48 | 16.34710 | 88.78336 | 37814 ft | 449 kts | 279° |
| 2026-04-21 11:48 | 16.36222 | 88.72089 | 37808 ft | 446 kts | 279° |
| 2026-04-21 11:49 | 16.37740 | 88.65810 | 37808 ft | 446 kts | 279° |
| 2026-04-21 11:49 | 16.39246 | 88.59572 | 37807 ft | 446 kts | 279° |
| 2026-04-21 11:50 | 16.40760 | 88.53290 | 37808 ft | 446 kts | 279° |
| 2026-04-21 11:50 | 16.42270 | 88.47017 | 37815 ft | 446 kts | 279° |
| 2026-04-21 11:51 | 16.43778 | 88.40746 | 37810 ft | 446 kts | 279° |
| 2026-04-21 11:51 | 16.45275 | 88.34509 | 37809 ft | 446 kts | 279° |
| 2026-04-21 11:52 | 16.46780 | 88.28232 | 37809 ft | 446 kts | 279° |
| 2026-04-21 11:52 | 16.48285 | 88.21947 | 37808 ft | 446 kts | 279° |
| 2026-04-21 11:53 | 16.49776 | 88.15711 | 37804 ft | 446 kts | 279° |
| 2026-04-21 11:53 | 16.51278 | 88.09424 | 37804 ft | 446 kts | 279° |
| 2026-04-21 11:54 | 16.52777 | 88.03136 | 37806 ft | 446 kts | 279° |
| 2026-04-21 11:54 | 16.54273 | 87.96850 | 37806 ft | 447 kts | 279° |
| 2026-04-21 11:55 | 16.55759 | 87.90597 | 37808 ft | 447 kts | 279° |
| 2026-04-21 11:55 | 16.57253 | 87.84308 | 37807 ft | 447 kts | 279° |
| 2026-04-21 11:56 | 16.58745 | 87.78011 | 37810 ft | 447 kts | 279° |
| 2026-04-21 11:56 | 16.60226 | 87.71755 | 37811 ft | 447 kts | 279° |
| 2026-04-21 11:57 | 16.61716 | 87.65455 | 37807 ft | 447 kts | 279° |
| 2026-04-21 11:57 | 16.63193 | 87.59199 | 37807 ft | 447 kts | 279° |
| 2026-04-21 11:58 | 16.64677 | 87.52903 | 37804 ft | 446 kts | 279° |
| 2026-04-21 11:58 | 16.66157 | 87.46615 | 37804 ft | 446 kts | 279° |
| 2026-04-21 11:59 | 16.67636 | 87.40320 | 37807 ft | 446 kts | 279° |
| 2026-04-21 11:59 | 16.69104 | 87.34063 | 37807 ft | 446 kts | 279° |
| 2026-04-21 12:00 | 16.70579 | 87.27773 | 37810 ft | 444 kts | 279° |
| 2026-04-21 12:00 | 16.72045 | 87.21508 | 37809 ft | 444 kts | 278° |
| 2026-04-21 12:01 | 16.73510 | 87.15245 | 37807 ft | 444 kts | 279° |
| 2026-04-21 12:01 | 16.74994 | 87.08982 | 37801 ft | 445 kts | 279° |
| 2026-04-21 12:02 | 16.77231 | 86.99609 | 37801 ft | 445 kts | 279° |
| 2026-04-21 12:03 | 16.78723 | 86.93335 | 37808 ft | 445 kts | 279° |
| 2026-04-21 12:03 | 16.80209 | 86.87076 | 37801 ft | 444 kts | 279° |
| 2026-04-21 12:04 | 16.81680 | 86.80863 | 37806 ft | 443 kts | 279° |
| 2026-04-21 12:04 | 16.83161 | 86.74603 | 37801 ft | 443 kts | 279° |
| 2026-04-21 12:05 | 16.84641 | 86.68338 | 37805 ft | 443 kts | 279° |
| 2026-04-21 12:05 | 16.86109 | 86.62115 | 37805 ft | 443 kts | 279° |
| 2026-04-21 12:06 | 16.87583 | 86.55859 | 37810 ft | 443 kts | 278° |
| 2026-04-21 12:06 | 16.89056 | 86.49596 | 37801 ft | 442 kts | 278° |
| 2026-04-21 12:07 | 16.90514 | 86.43391 | 37804 ft | 442 kts | 278° |
| 2026-04-21 12:07 | 16.91980 | 86.37141 | 37801 ft | 442 kts | 278° |
| 2026-04-21 12:08 | 16.93442 | 86.30897 | 37804 ft | 442 kts | 278° |
| 2026-04-21 12:08 | 16.94902 | 86.24650 | 37809 ft | 442 kts | 278° |
| 2026-04-21 12:09 | 16.96360 | 86.18408 | 37808 ft | 442 kts | 278° |
| 2026-04-21 12:09 | 16.97808 | 86.12197 | 37801 ft | 442 kts | 278° |
| 2026-04-21 12:10 | 16.99265 | 86.05940 | 37802 ft | 442 kts | 278° |
| 2026-04-21 12:10 | 17.00709 | 85.99733 | 37802 ft | 442 kts | 278° |
| 2026-04-21 12:11 | 17.02159 | 85.93487 | 37801 ft | 440 kts | 278° |
| 2026-04-21 12:11 | 17.03602 | 85.87265 | 37799 ft | 439 kts | 278° |
| 2026-04-21 12:12 | 17.05031 | 85.81090 | 37798 ft | 439 kts | 278° |
| 2026-04-21 12:12 | 17.06467 | 85.74877 | 37799 ft | 439 kts | 278° |
| 2026-04-21 12:13 | 17.07891 | 85.68704 | 37797 ft | 439 kts | 278° |
| 2026-04-21 12:13 | 17.09322 | 85.62496 | 37798 ft | 439 kts | 278° |
| 2026-04-21 12:14 | 17.10750 | 85.56293 | 37800 ft | 439 kts | 278° |
| 2026-04-21 12:14 | 17.12179 | 85.50076 | 37799 ft | 439 kts | 278° |
| 2026-04-21 12:15 | 17.13602 | 85.43874 | 37798 ft | 439 kts | 278° |
| 2026-04-21 12:15 | 17.15024 | 85.37664 | 37795 ft | 439 kts | 278° |
| 2026-04-21 12:16 | 17.16440 | 85.31477 | 37795 ft | 439 kts | 278° |
| 2026-04-21 12:16 | 17.17888 | 85.25303 | 37790 ft | 439 kts | 279° |
| 2026-04-21 12:17 | 17.19370 | 85.19104 | 37790 ft | 439 kts | 279° |
| 2026-04-21 12:17 | 17.20854 | 85.12893 | 37791 ft | 439 kts | 279° |
| 2026-04-21 12:18 | 17.22320 | 85.06728 | 37791 ft | 439 kts | 279° |
| 2026-04-21 12:18 | 17.23793 | 85.00521 | 37793 ft | 438 kts | 279° |
| 2026-04-21 12:19 | 17.25257 | 84.94337 | 37790 ft | 438 kts | 278° |
| 2026-04-21 12:19 | 17.26713 | 84.88178 | 37787 ft | 438 kts | 278° |
| 2026-04-21 12:20 | 17.28174 | 84.81989 | 37790 ft | 438 kts | 278° |
| 2026-04-21 12:21 | 17.30935 | 84.70096 | 37791 ft | 438 kts | 278° |
| 2026-04-21 12:21 | 17.32367 | 84.63939 | 37793 ft | 438 kts | 278° |
| 2026-04-21 12:22 | 17.33819 | 84.57733 | 37795 ft | 438 kts | 278° |
| 2026-04-21 12:22 | 17.35271 | 84.51524 | 37793 ft | 438 kts | 278° |
| 2026-04-21 12:23 | 17.36749 | 84.45363 | 37790 ft | 439 kts | 278° |
| 2026-04-21 12:23 | 17.38277 | 84.39164 | 37790 ft | 439 kts | 278° |
| 2026-04-21 12:24 | 17.39802 | 84.32974 | 37790 ft | 439 kts | 278° |
| 2026-04-21 12:24 | 17.41323 | 84.26770 | 37791 ft | 439 kts | 278° |
| 2026-04-21 12:25 | 17.42831 | 84.20606 | 37787 ft | 440 kts | 278° |
| 2026-04-21 12:25 | 17.44350 | 84.14386 | 37787 ft | 440 kts | 278° |
| 2026-04-21 12:26 | 17.45867 | 84.08170 | 37787 ft | 440 kts | 278° |
| 2026-04-21 12:26 | 17.47385 | 84.01943 | 37789 ft | 440 kts | 278° |
| 2026-04-21 12:27 | 17.48907 | 83.95766 | 37787 ft | 440 kts | 278° |
| 2026-04-21 12:27 | 17.50453 | 83.89562 | 37788 ft | 440 kts | 279° |
| 2026-04-21 12:28 | 17.52049 | 83.83385 | 37780 ft | 438 kts | 279° |
| 2026-04-21 12:28 | 17.53636 | 83.77217 | 37779 ft | 438 kts | 279° |
| 2026-04-21 12:29 | 17.55203 | 83.71053 | 37776 ft | 438 kts | 279° |
| 2026-04-21 12:29 | 17.56766 | 83.64878 | 37776 ft | 438 kts | 279° |
| 2026-04-21 12:30 | 17.58325 | 83.58710 | 37777 ft | 438 kts | 279° |
| 2026-04-21 12:30 | 17.59868 | 83.52575 | 37791 ft | 438 kts | 278° |
| 2026-04-21 12:31 | 17.61432 | 83.46415 | 37777 ft | 436 kts | 278° |
| 2026-04-21 12:31 | 17.62992 | 83.40268 | 37774 ft | 436 kts | 278° |
| 2026-04-21 12:32 | 17.64543 | 83.34115 | 37772 ft | 435 kts | 278° |
| 2026-04-21 12:32 | 17.66072 | 83.28033 | 37779 ft | 430 kts | 278° |
| 2026-04-21 12:33 | 17.67730 | 83.22033 | 37782 ft | 428 kts | 282° |
| 2026-04-21 12:33 | 17.69654 | 83.16110 | 37772 ft | 429 kts | 283° |
| 2026-04-21 12:34 | 17.71622 | 83.10183 | 37773 ft | 429 kts | 282° |
| 2026-04-21 12:34 | 17.73547 | 83.04296 | 37772 ft | 429 kts | 282° |
| 2026-04-21 12:35 | 17.75461 | 82.98372 | 37780 ft | 429 kts | 282° |
| 2026-04-21 12:35 | 17.77374 | 82.92428 | 37803 ft | 429 kts | 282° |
| 2026-04-21 12:36 | 17.79274 | 82.86514 | 37805 ft | 429 kts | 282° |
| 2026-04-21 12:36 | 17.81183 | 82.80573 | 37825 ft | 429 kts | 282° |
| 2026-04-21 12:37 | 17.83090 | 82.74629 | 37813 ft | 429 kts | 282° |
| 2026-04-21 12:37 | 17.84984 | 82.68716 | 37842 ft | 430 kts | 282° |
| 2026-04-21 12:38 | 17.86893 | 82.62756 | 37836 ft | 430 kts | 282° |
| 2026-04-21 12:38 | 17.88801 | 82.56799 | 37863 ft | 430 kts | 282° |
| 2026-04-21 12:39 | 17.90704 | 82.50840 | 37863 ft | 430 kts | 282° |
| 2026-04-21 12:39 | 17.92606 | 82.44878 | 37865 ft | 430 kts | 282° |
| 2026-04-21 12:40 | 17.94494 | 82.38954 | 37873 ft | 431 kts | 282° |
| 2026-04-21 12:40 | 17.96395 | 82.32982 | 37856 ft | 430 kts | 282° |
| 2026-04-21 12:41 | 17.98292 | 82.27007 | 37858 ft | 430 kts | 282° |
| 2026-04-21 12:41 | 18.00177 | 82.21080 | 37844 ft | 430 kts | 282° |
| 2026-04-21 12:42 | 18.02071 | 82.15117 | 37858 ft | 429 kts | 282° |
| 2026-04-21 12:42 | 18.03958 | 82.09160 | 37845 ft | 429 kts | 282° |
| 2026-04-21 12:43 | 18.05832 | 82.03237 | 37845 ft | 429 kts | 282° |
| 2026-04-21 12:43 | 18.07731 | 81.97285 | 37847 ft | 430 kts | 282° |
| 2026-04-21 12:44 | 18.09679 | 81.91337 | 37833 ft | 430 kts | 282° |
| 2026-04-21 12:44 | 18.11635 | 81.85390 | 37833 ft | 430 kts | 282° |
| 2026-04-21 12:45 | 18.13587 | 81.79439 | 37828 ft | 430 kts | 282° |
| 2026-04-21 12:45 | 18.15534 | 81.73485 | 37827 ft | 430 kts | 282° |
| 2026-04-21 12:46 | 18.17466 | 81.67566 | 37826 ft | 430 kts | 282° |
| 2026-04-21 12:46 | 18.19082 | 81.62603 | 37828 ft | 430 kts | 282° |
| 2026-04-21 12:47 | 18.21336 | 81.55678 | 37847 ft | 429 kts | 282° |
| 2026-04-21 12:47 | 18.22959 | 81.50691 | 37844 ft | 429 kts | 282° |
| 2026-04-21 12:48 | 18.24876 | 81.44792 | 37850 ft | 429 kts | 282° |
| 2026-04-21 12:48 | 18.26808 | 81.38838 | 37846 ft | 428 kts | 282° |
| 2026-04-21 12:49 | 18.28730 | 81.32909 | 37854 ft | 427 kts | 282° |
| 2026-04-21 12:49 | 18.30637 | 81.27019 | 37856 ft | 427 kts | 281° |
| 2026-04-21 12:50 | 18.32558 | 81.21076 | 37855 ft | 429 kts | 281° |
| 2026-04-21 12:50 | 18.34479 | 81.15124 | 37848 ft | 429 kts | 281° |
| 2026-04-21 12:51 | 18.36390 | 81.09202 | 37860 ft | 429 kts | 281° |
| 2026-04-21 12:51 | 18.38310 | 81.03244 | 37850 ft | 429 kts | 281° |
| 2026-04-21 12:52 | 18.40231 | 80.97276 | 37858 ft | 429 kts | 281° |
| 2026-04-21 12:52 | 18.42134 | 80.91356 | 37853 ft | 429 kts | 281° |
| 2026-04-21 12:53 | 18.44053 | 80.85379 | 37854 ft | 431 kts | 281° |
| 2026-04-21 12:53 | 18.45972 | 80.79390 | 37854 ft | 431 kts | 281° |
| 2026-04-21 12:54 | 18.47878 | 80.73442 | 37854 ft | 431 kts | 281° |
| 2026-04-21 12:54 | 18.49794 | 80.67456 | 37860 ft | 431 kts | 281° |
| 2026-04-21 12:55 | 18.51707 | 80.61470 | 37860 ft | 430 kts | 281° |
| 2026-04-21 12:55 | 18.53593 | 80.55474 | 37860 ft | 430 kts | 280° |
| 2026-04-21 12:56 | 18.55402 | 80.49464 | 37854 ft | 428 kts | 279° |
| 2026-04-21 12:56 | 18.57174 | 80.43532 | 37853 ft | 426 kts | 279° |
| 2026-04-21 12:57 | 18.58955 | 80.37570 | 37851 ft | 425 kts | 279° |
| 2026-04-21 12:57 | 18.60738 | 80.31609 | 37850 ft | 426 kts | 279° |
| 2026-04-21 12:58 | 18.62519 | 80.25658 | 37847 ft | 426 kts | 279° |
| 2026-04-21 12:58 | 18.64290 | 80.19732 | 37849 ft | 426 kts | 279° |
| 2026-04-21 12:59 | 18.66068 | 80.13778 | 37844 ft | 426 kts | 279° |
| 2026-04-21 12:59 | 18.67849 | 80.07800 | 37843 ft | 427 kts | 279° |
| 2026-04-21 13:00 | 18.69633 | 80.01809 | 37842 ft | 428 kts | 279° |
| 2026-04-21 13:00 | 18.71415 | 79.95819 | 37840 ft | 428 kts | 279° |
| 2026-04-21 13:01 | 18.73193 | 79.89832 | 37840 ft | 428 kts | 279° |
| 2026-04-21 13:01 | 18.74970 | 79.83842 | 37838 ft | 427 kts | 279° |
| 2026-04-21 13:02 | 18.76734 | 79.77890 | 37845 ft | 427 kts | 279° |
| 2026-04-21 13:02 | 18.79387 | 79.68921 | 37841 ft | 425 kts | 278° |
| 2026-04-21 13:03 | 18.81148 | 79.62956 | 37838 ft | 425 kts | 278° |
| 2026-04-21 13:03 | 18.82910 | 79.56982 | 37848 ft | 425 kts | 278° |
| 2026-04-21 13:04 | 18.84656 | 79.51052 | 37838 ft | 424 kts | 278° |
| 2026-04-21 13:04 | 18.86403 | 79.45116 | 37837 ft | 423 kts | 278° |
| 2026-04-21 13:05 | 18.88137 | 79.39212 | 37843 ft | 422 kts | 278° |
| 2026-04-21 13:05 | 18.89884 | 79.33260 | 37841 ft | 421 kts | 278° |
| 2026-04-21 13:06 | 18.91603 | 79.27391 | 37840 ft | 421 kts | 278° |
| 2026-04-21 13:06 | 18.93332 | 79.21483 | 37836 ft | 421 kts | 278° |
| 2026-04-21 13:07 | 18.95061 | 79.15564 | 37839 ft | 421 kts | 278° |
| 2026-04-21 13:07 | 18.96792 | 79.09636 | 37841 ft | 421 kts | 278° |
| 2026-04-21 13:08 | 18.98508 | 79.03750 | 37844 ft | 421 kts | 278° |
| 2026-04-21 13:08 | 19.00232 | 78.97828 | 37840 ft | 421 kts | 278° |
| 2026-04-21 13:09 | 19.01941 | 78.91950 | 37825 ft | 420 kts | 278° |
| 2026-04-21 13:09 | 19.03656 | 78.86034 | 37836 ft | 420 kts | 278° |
| 2026-04-21 13:10 | 19.05372 | 78.80120 | 37836 ft | 421 kts | 278° |
| 2026-04-21 13:10 | 19.07087 | 78.74201 | 37833 ft | 420 kts | 278° |
| 2026-04-21 13:11 | 19.08789 | 78.68321 | 37836 ft | 420 kts | 278° |
| 2026-04-21 13:11 | 19.10500 | 78.62402 | 37830 ft | 420 kts | 277° |
| 2026-04-21 13:12 | 19.12203 | 78.56497 | 37825 ft | 418 kts | 277° |
| 2026-04-21 13:12 | 19.13898 | 78.50617 | 37820 ft | 417 kts | 277° |
| 2026-04-21 13:13 | 19.15577 | 78.44779 | 37836 ft | 417 kts | 277° |
| 2026-04-21 13:13 | 19.17268 | 78.38892 | 37830 ft | 417 kts | 277° |
| 2026-04-21 13:14 | 19.18953 | 78.33016 | 37817 ft | 417 kts | 277° |
| 2026-04-21 13:14 | 19.20628 | 78.27173 | 37827 ft | 417 kts | 277° |
| 2026-04-21 13:15 | 19.22311 | 78.21294 | 37806 ft | 417 kts | 277° |
| 2026-04-21 13:15 | 19.23992 | 78.15414 | 37805 ft | 417 kts | 277° |
| 2026-04-21 13:16 | 19.25107 | 78.09493 | 37808 ft | 406 kts | 269° |
| 2026-04-21 13:16 | 19.25773 | 78.03555 | 37818 ft | 405 kts | 268° |
| 2026-04-21 13:17 | 19.26352 | 77.97648 | 37810 ft | 405 kts | 267° |
| 2026-04-21 13:17 | 19.26929 | 77.91703 | 37811 ft | 405 kts | 268° |
| 2026-04-21 13:18 | 19.27515 | 77.85775 | 37806 ft | 405 kts | 268° |
| 2026-04-21 13:18 | 19.28106 | 77.79838 | 37803 ft | 405 kts | 268° |
| 2026-04-21 13:19 | 19.28692 | 77.73948 | 37807 ft | 405 kts | 268° |
| 2026-04-21 13:19 | 19.29281 | 77.68016 | 37807 ft | 405 kts | 268° |
| 2026-04-21 13:20 | 19.29866 | 77.62081 | 37800 ft | 405 kts | 268° |
| 2026-04-21 13:20 | 19.30449 | 77.56151 | 37802 ft | 405 kts | 268° |
| 2026-04-21 13:21 | 19.31027 | 77.50260 | 37801 ft | 405 kts | 268° |
| 2026-04-21 13:21 | 19.31608 | 77.44318 | 37801 ft | 405 kts | 268° |
| 2026-04-21 13:22 | 19.32184 | 77.38412 | 37801 ft | 405 kts | 268° |
| 2026-04-21 13:22 | 19.32761 | 77.32469 | 37801 ft | 405 kts | 268° |
| 2026-04-21 13:23 | 19.33336 | 77.26527 | 37803 ft | 405 kts | 268° |
| 2026-04-21 13:23 | 19.33909 | 77.20579 | 37804 ft | 405 kts | 268° |
| 2026-04-21 13:24 | 19.34480 | 77.14636 | 37807 ft | 406 kts | 268° |
| 2026-04-21 13:24 | 19.35049 | 77.08703 | 37806 ft | 404 kts | 268° |
| 2026-04-21 13:25 | 19.35609 | 77.02826 | 37861 ft | 403 kts | 267° |
| 2026-04-21 13:25 | 19.36171 | 76.96891 | 38087 ft | 407 kts | 267° |
| 2026-04-21 13:26 | 19.36454 | 76.93901 | 38283 ft | 407 kts | 267° |
| 2026-04-21 13:26 | 19.36736 | 76.90921 | 38520 ft | 406 kts | 267° |
| 2026-04-21 13:26 | 19.37020 | 76.87944 | 38705 ft | 406 kts | 267° |
| 2026-04-21 13:26 | 19.37303 | 76.84964 | 38881 ft | 406 kts | 267° |
| 2026-04-21 13:27 | 19.37593 | 76.81987 | 39038 ft | 406 kts | 268° |
| 2026-04-21 13:27 | 19.37899 | 76.79009 | 39207 ft | 406 kts | 268° |
| 2026-04-21 13:27 | 19.38214 | 76.76033 | 39360 ft | 406 kts | 268° |
| 2026-04-21 13:27 | 19.38531 | 76.73060 | 39524 ft | 406 kts | 269° |
| 2026-04-21 13:28 | 19.38845 | 76.70123 | 39672 ft | 406 kts | 269° |
| 2026-04-21 13:28 | 19.39161 | 76.67153 | 39792 ft | 407 kts | 269° |
| 2026-04-21 13:28 | 19.39789 | 76.61144 | 39813 ft | 413 kts | 269° |
| 2026-04-21 13:29 | 19.40420 | 76.55090 | 39816 ft | 413 kts | 269° |
| 2026-04-21 13:29 | 19.41050 | 76.49046 | 39825 ft | 412 kts | 269° |
| 2026-04-21 13:30 | 19.41678 | 76.42999 | 39824 ft | 412 kts | 269° |
| 2026-04-21 13:30 | 19.42298 | 76.36992 | 39823 ft | 412 kts | 269° |
| 2026-04-21 13:31 | 19.42921 | 76.30934 | 39824 ft | 413 kts | 268° |
| 2026-04-21 13:31 | 19.43542 | 76.24890 | 39823 ft | 413 kts | 268° |
| 2026-04-21 13:32 | 19.44157 | 76.18875 | 39829 ft | 412 kts | 268° |
| 2026-04-21 13:32 | 19.44773 | 76.12825 | 39832 ft | 413 kts | 269° |
| 2026-04-21 13:33 | 19.45284 | 76.07794 | 39829 ft | 413 kts | 269° |
| 2026-04-21 13:33 | 19.45897 | 76.01740 | 39829 ft | 413 kts | 269° |
| 2026-04-21 13:34 | 19.46609 | 75.94693 | 39831 ft | 413 kts | 269° |
| 2026-04-21 13:34 | 19.47117 | 75.89644 | 39835 ft | 413 kts | 269° |
| 2026-04-21 13:35 | 19.47725 | 75.83583 | 39831 ft | 413 kts | 268° |
| 2026-04-21 13:35 | 19.48328 | 75.77548 | 39843 ft | 413 kts | 268° |
| 2026-04-21 13:36 | 19.48933 | 75.71475 | 39837 ft | 413 kts | 268° |
| 2026-04-21 13:36 | 19.49531 | 75.65447 | 39837 ft | 413 kts | 268° |
| 2026-04-21 13:37 | 19.50139 | 75.59386 | 39837 ft | 413 kts | 269° |
| 2026-04-21 13:37 | 19.50757 | 75.53314 | 39837 ft | 414 kts | 269° |
| 2026-04-21 13:38 | 19.51374 | 75.47240 | 39843 ft | 414 kts | 269° |
| 2026-04-21 13:38 | 19.51985 | 75.41209 | 39846 ft | 414 kts | 268° |
| 2026-04-21 13:39 | 19.52597 | 75.35122 | 39842 ft | 415 kts | 268° |
| 2026-04-21 13:39 | 19.53203 | 75.29078 | 39851 ft | 414 kts | 269° |
| 2026-04-21 13:40 | 19.53811 | 75.23000 | 39842 ft | 413 kts | 269° |
| 2026-04-21 13:40 | 19.54415 | 75.16934 | 39844 ft | 413 kts | 268° |
| 2026-04-21 13:41 | 19.55017 | 75.10866 | 39845 ft | 413 kts | 268° |
| 2026-04-21 13:41 | 19.55613 | 75.04840 | 39839 ft | 414 kts | 269° |
| 2026-04-21 13:42 | 19.56213 | 74.98735 | 39847 ft | 417 kts | 269° |
| 2026-04-21 13:42 | 19.56816 | 74.92596 | 39844 ft | 418 kts | 269° |
| 2026-04-21 13:43 | 19.57415 | 74.86495 | 39840 ft | 418 kts | 269° |
| 2026-04-21 13:43 | 19.58015 | 74.80349 | 39844 ft | 418 kts | 269° |
| 2026-04-21 13:44 | 19.58611 | 74.74214 | 39851 ft | 418 kts | 269° |
| 2026-04-21 13:44 | 19.59206 | 74.68072 | 39846 ft | 418 kts | 269° |
| 2026-04-21 13:45 | 19.59795 | 74.61977 | 39862 ft | 418 kts | 269° |
| 2026-04-21 13:45 | 19.60383 | 74.55844 | 39862 ft | 418 kts | 268° |
| 2026-04-21 13:46 | 19.60737 | 74.49719 | 39865 ft | 415 kts | 265° |
| 2026-04-21 13:46 | 19.60911 | 74.43597 | 39870 ft | 414 kts | 265° |
| 2026-04-21 13:47 | 19.61075 | 74.37522 | 39870 ft | 415 kts | 265° |
| 2026-04-21 13:47 | 19.61265 | 74.31396 | 39876 ft | 416 kts | 265° |
| 2026-04-21 13:48 | 19.61468 | 74.25226 | 39878 ft | 418 kts | 265° |
| 2026-04-21 13:48 | 19.61670 | 74.19098 | 39886 ft | 418 kts | 265° |
| 2026-04-21 13:49 | 19.61872 | 74.12926 | 39880 ft | 418 kts | 265° |
| 2026-04-21 13:49 | 19.62069 | 74.06761 | 39884 ft | 418 kts | 265° |
| 2026-04-21 13:50 | 19.62265 | 74.00601 | 39882 ft | 417 kts | 265° |
| 2026-04-21 13:50 | 19.62458 | 73.94429 | 39883 ft | 419 kts | 266° |
| 2026-04-21 13:51 | 19.62648 | 73.88266 | 39886 ft | 420 kts | 266° |
| 2026-04-21 13:51 | 19.62838 | 73.82062 | 39886 ft | 420 kts | 266° |
| 2026-04-21 13:52 | 19.63024 | 73.75871 | 39882 ft | 420 kts | 265° |
| 2026-04-21 13:52 | 19.63214 | 73.69674 | 39872 ft | 421 kts | 267° |
| 2026-04-21 13:53 | 19.64214 | 73.63486 | 39857 ft | 431 kts | 278° |
| 2026-04-21 13:53 | 19.65853 | 73.57336 | 39852 ft | 435 kts | 280° |
| 2026-04-21 13:54 | 19.67610 | 73.51214 | 39856 ft | 436 kts | 280° |
| 2026-04-21 13:54 | 19.69378 | 73.45055 | 39855 ft | 436 kts | 280° |
| 2026-04-21 13:55 | 19.71127 | 73.38889 | 39846 ft | 436 kts | 280° |
| 2026-04-21 13:55 | 19.72855 | 73.32749 | 39834 ft | 436 kts | 280° |
| 2026-04-21 13:56 | 19.74589 | 73.26571 | 39837 ft | 437 kts | 281° |
| 2026-04-21 13:56 | 19.76331 | 73.20361 | 39826 ft | 438 kts | 281° |
| 2026-04-21 13:57 | 19.78068 | 73.14161 | 39829 ft | 438 kts | 281° |
| 2026-04-21 13:57 | 19.79795 | 73.07989 | 39834 ft | 438 kts | 281° |
| 2026-04-21 13:58 | 19.81530 | 73.01778 | 39835 ft | 438 kts | 281° |
| 2026-04-21 13:58 | 19.83261 | 72.95575 | 39833 ft | 438 kts | 281° |
| 2026-04-21 13:59 | 19.84991 | 72.89356 | 39838 ft | 440 kts | 281° |
| 2026-04-21 13:59 | 19.86724 | 72.83137 | 39834 ft | 437 kts | 281° |
| 2026-04-21 14:00 | 19.88431 | 72.77002 | 39839 ft | 436 kts | 281° |
| 2026-04-21 14:00 | 19.90146 | 72.70820 | 39840 ft | 436 kts | 281° |
| 2026-04-21 14:01 | 19.91856 | 72.64642 | 39834 ft | 436 kts | 281° |
| 2026-04-21 14:01 | 19.93567 | 72.58451 | 39840 ft | 436 kts | 282° |
| 2026-04-21 14:02 | 19.95275 | 72.52262 | 39834 ft | 441 kts | 282° |
| 2026-04-21 14:03 | 19.97872 | 72.42841 | 39836 ft | 442 kts | 282° |
| 2026-04-21 14:03 | 19.99600 | 72.36563 | 39834 ft | 442 kts | 282° |
| 2026-04-21 14:04 | 20.01312 | 72.30330 | 39817 ft | 442 kts | 282° |
| 2026-04-21 14:04 | 20.03035 | 72.24047 | 39823 ft | 442 kts | 283° |
| 2026-04-21 14:05 | 20.04759 | 72.17753 | 39829 ft | 444 kts | 283° |
| 2026-04-21 14:05 | 20.06486 | 72.11437 | 39825 ft | 444 kts | 283° |
| 2026-04-21 14:06 | 20.08201 | 72.05156 | 39824 ft | 444 kts | 283° |
| 2026-04-21 14:06 | 20.09923 | 71.98839 | 39839 ft | 444 kts | 283° |
| 2026-04-21 14:07 | 20.11643 | 71.92519 | 39826 ft | 444 kts | 283° |
| 2026-04-21 14:07 | 20.13365 | 71.86184 | 39834 ft | 446 kts | 283° |
| 2026-04-21 14:08 | 20.15089 | 71.79829 | 39838 ft | 448 kts | 283° |
| 2026-04-21 14:08 | 20.16815 | 71.73456 | 39843 ft | 448 kts | 284° |
| 2026-04-21 14:09 | 20.18526 | 71.67130 | 39829 ft | 448 kts | 285° |
| 2026-04-21 14:09 | 20.20250 | 71.60752 | 39828 ft | 448 kts | 285° |
| 2026-04-21 14:10 | 20.22038 | 71.54381 | 39835 ft | 448 kts | 287° |
| 2026-04-21 14:10 | 20.24022 | 71.48099 | 39837 ft | 447 kts | 288° |
| 2026-04-21 14:11 | 20.26040 | 71.41862 | 39830 ft | 448 kts | 288° |
| 2026-04-21 14:11 | 20.28053 | 71.35573 | 39827 ft | 447 kts | 288° |
| 2026-04-21 14:12 | 20.30041 | 71.29302 | 39827 ft | 447 kts | 288° |
| 2026-04-21 14:12 | 20.32029 | 71.23002 | 39836 ft | 448 kts | 288° |
| 2026-04-21 14:13 | 20.33999 | 71.16750 | 39833 ft | 447 kts | 288° |
| 2026-04-21 14:13 | 20.35975 | 71.10473 | 39830 ft | 447 kts | 288° |
| 2026-04-21 14:14 | 20.37953 | 71.04184 | 39826 ft | 447 kts | 288° |
| 2026-04-21 14:14 | 20.39919 | 70.97924 | 39842 ft | 447 kts | 288° |
| 2026-04-21 14:15 | 20.41892 | 70.91632 | 39834 ft | 447 kts | 288° |
| 2026-04-21 14:15 | 20.43857 | 70.85355 | 39841 ft | 446 kts | 288° |
| 2026-04-21 14:16 | 20.45823 | 70.79070 | 39831 ft | 446 kts | 288° |
| 2026-04-21 14:16 | 20.47777 | 70.72814 | 39838 ft | 446 kts | 288° |
| 2026-04-21 14:17 | 20.49739 | 70.66521 | 39840 ft | 447 kts | 288° |
| 2026-04-21 14:17 | 20.51699 | 70.60228 | 39845 ft | 447 kts | 288° |
| 2026-04-21 14:18 | 20.53646 | 70.53969 | 39844 ft | 447 kts | 288° |
| 2026-04-21 14:18 | 20.55598 | 70.47681 | 39847 ft | 446 kts | 288° |
| 2026-04-21 14:19 | 20.57544 | 70.41404 | 39852 ft | 445 kts | 288° |
| 2026-04-21 14:19 | 20.59489 | 70.35124 | 39852 ft | 445 kts | 288° |
| 2026-04-21 14:20 | 20.61430 | 70.28848 | 39856 ft | 445 kts | 288° |
| 2026-04-21 14:20 | 20.63358 | 70.22602 | 39861 ft | 446 kts | 288° |
| 2026-04-21 14:21 | 20.65301 | 70.16301 | 39860 ft | 445 kts | 288° |
| 2026-04-21 14:21 | 20.67238 | 70.10010 | 39863 ft | 445 kts | 288° |
| 2026-04-21 14:22 | 20.69157 | 70.03769 | 39866 ft | 445 kts | 288° |
| 2026-04-21 14:22 | 20.71090 | 69.97474 | 39866 ft | 445 kts | 288° |
| 2026-04-21 14:23 | 20.72705 | 69.92205 | 39874 ft | 445 kts | 288° |
| 2026-04-21 14:23 | 20.74621 | 69.85949 | 39874 ft | 445 kts | 288° |
| 2026-04-21 14:24 | 20.76547 | 69.79648 | 39868 ft | 446 kts | 288° |
| 2026-04-21 14:24 | 20.78470 | 69.73353 | 39877 ft | 446 kts | 288° |
| 2026-04-21 14:25 | 20.80391 | 69.67051 | 39874 ft | 446 kts | 288° |
| 2026-04-21 14:25 | 20.82299 | 69.60782 | 39876 ft | 446 kts | 288° |
| 2026-04-21 14:26 | 20.84217 | 69.54476 | 39876 ft | 446 kts | 288° |
| 2026-04-21 14:26 | 20.86129 | 69.48175 | 39877 ft | 445 kts | 288° |
| 2026-04-21 14:27 | 20.88038 | 69.41876 | 39877 ft | 445 kts | 288° |
| 2026-04-21 14:27 | 20.89946 | 69.35574 | 39877 ft | 445 kts | 288° |
| 2026-04-21 14:28 | 20.91840 | 69.29308 | 39878 ft | 445 kts | 288° |
| 2026-04-21 14:28 | 20.93747 | 69.22987 | 39876 ft | 445 kts | 288° |
| 2026-04-21 14:29 | 20.95651 | 69.16670 | 39875 ft | 445 kts | 288° |
| 2026-04-21 14:29 | 20.97668 | 69.10452 | 39876 ft | 444 kts | 293° |
| 2026-04-21 14:30 | 21.00116 | 69.04371 | 39877 ft | 444 kts | 294° |
| 2026-04-21 14:30 | 21.02646 | 68.98319 | 39879 ft | 444 kts | 294° |
| 2026-04-21 14:31 | 21.05181 | 68.92287 | 39876 ft | 444 kts | 294° |
| 2026-04-21 14:31 | 21.07709 | 68.86245 | 39875 ft | 444 kts | 294° |
| 2026-04-21 14:32 | 21.10216 | 68.80232 | 39875 ft | 444 kts | 294° |
| 2026-04-21 14:32 | 21.12729 | 68.74192 | 39872 ft | 443 kts | 294° |
| 2026-04-21 14:33 | 21.15240 | 68.68152 | 39880 ft | 443 kts | 294° |
| 2026-04-21 14:33 | 21.17735 | 68.62141 | 39877 ft | 443 kts | 294° |
| 2026-04-21 14:34 | 21.20243 | 68.56096 | 39878 ft | 443 kts | 294° |
| 2026-04-21 14:34 | 21.22746 | 68.50051 | 39874 ft | 444 kts | 294° |
| 2026-04-21 14:35 | 21.25236 | 68.44034 | 39877 ft | 444 kts | 294° |
| 2026-04-21 14:35 | 21.27744 | 68.37966 | 39881 ft | 444 kts | 294° |
| 2026-04-21 14:36 | 21.30250 | 68.31893 | 39882 ft | 444 kts | 294° |
| 2026-04-21 14:36 | 21.32737 | 68.25861 | 39882 ft | 444 kts | 294° |
| 2026-04-21 14:37 | 21.35233 | 68.19798 | 39881 ft | 444 kts | 294° |
| 2026-04-21 14:37 | 21.37733 | 68.13720 | 39878 ft | 444 kts | 294° |
| 2026-04-21 14:38 | 21.40230 | 68.07641 | 39881 ft | 445 kts | 294° |
| 2026-04-21 14:38 | 21.42726 | 68.01556 | 39876 ft | 445 kts | 294° |
| 2026-04-21 14:39 | 21.45202 | 67.95512 | 39876 ft | 445 kts | 294° |
| 2026-04-21 14:39 | 21.47693 | 67.89425 | 39879 ft | 444 kts | 294° |
| 2026-04-21 14:40 | 21.50167 | 67.83374 | 39880 ft | 444 kts | 294° |
| 2026-04-21 14:40 | 21.52649 | 67.77293 | 39876 ft | 444 kts | 294° |
| 2026-04-21 14:41 | 21.55131 | 67.71205 | 39880 ft | 444 kts | 293° |
| 2026-04-21 14:41 | 21.57614 | 67.65110 | 39877 ft | 444 kts | 293° |
| 2026-04-21 14:42 | 21.60091 | 67.59018 | 39881 ft | 445 kts | 293° |
| 2026-04-21 14:42 | 21.62550 | 67.52965 | 39878 ft | 444 kts | 294° |
| 2026-04-21 14:43 | 21.65026 | 67.46862 | 39880 ft | 444 kts | 294° |
| 2026-04-21 14:43 | 21.67492 | 67.40776 | 39876 ft | 444 kts | 294° |
| 2026-04-21 14:44 | 21.69946 | 67.34714 | 39880 ft | 444 kts | 294° |
| 2026-04-21 14:44 | 21.72409 | 67.28621 | 39876 ft | 444 kts | 294° |
| 2026-04-21 14:45 | 21.74858 | 67.22554 | 39872 ft | 444 kts | 294° |
| 2026-04-21 14:45 | 21.77317 | 67.16456 | 39876 ft | 443 kts | 294° |
| 2026-04-21 14:46 | 21.79764 | 67.10378 | 39874 ft | 441 kts | 294° |
| 2026-04-21 14:46 | 21.82184 | 67.04362 | 39872 ft | 440 kts | 294° |
| 2026-04-21 14:47 | 21.84617 | 66.98305 | 39874 ft | 440 kts | 294° |
| 2026-04-21 14:47 | 21.87047 | 66.92249 | 39873 ft | 440 kts | 293° |
| 2026-04-21 14:48 | 21.89460 | 66.86227 | 39877 ft | 440 kts | 293° |
| 2026-04-21 14:48 | 21.91893 | 66.80148 | 39874 ft | 439 kts | 293° |
| 2026-04-21 14:49 | 21.94296 | 66.74136 | 39872 ft | 439 kts | 293° |
| 2026-04-21 14:49 | 21.96708 | 66.68094 | 39872 ft | 439 kts | 293° |
| 2026-04-21 14:50 | 21.98712 | 66.63069 | 39870 ft | 439 kts | 293° |
| 2026-04-21 14:50 | 22.01524 | 66.56006 | 39874 ft | 438 kts | 293° |
| 2026-04-21 14:51 | 22.03910 | 66.50007 | 39869 ft | 438 kts | 293° |
| 2026-04-21 14:51 | 22.06313 | 66.43959 | 39874 ft | 438 kts | 293° |
| 2026-04-21 14:52 | 22.08716 | 66.37905 | 39873 ft | 438 kts | 293° |
| 2026-04-21 14:52 | 22.11098 | 66.31895 | 39873 ft | 438 kts | 293° |
| 2026-04-21 14:53 | 22.13495 | 66.25837 | 39871 ft | 438 kts | 293° |
| 2026-04-21 14:53 | 22.15884 | 66.19794 | 39870 ft | 438 kts | 293° |
| 2026-04-21 14:54 | 22.18271 | 66.13749 | 39872 ft | 437 kts | 293° |
| 2026-04-21 14:54 | 22.20650 | 66.07715 | 39869 ft | 437 kts | 293° |
| 2026-04-21 14:55 | 22.23017 | 66.01706 | 39867 ft | 437 kts | 292° |
| 2026-04-21 14:55 | 22.25392 | 65.95666 | 39870 ft | 436 kts | 292° |
| 2026-04-21 14:56 | 22.27763 | 65.89631 | 39866 ft | 436 kts | 292° |
| 2026-04-21 14:56 | 22.30117 | 65.83630 | 39872 ft | 436 kts | 292° |
| 2026-04-21 14:57 | 22.32483 | 65.77592 | 39871 ft | 436 kts | 292° |
| 2026-04-21 14:57 | 22.34848 | 65.71549 | 39870 ft | 436 kts | 292° |
| 2026-04-21 14:58 | 22.37211 | 65.65502 | 39869 ft | 436 kts | 292° |
| 2026-04-21 14:58 | 22.39554 | 65.59499 | 39863 ft | 436 kts | 292° |
| 2026-04-21 14:59 | 22.41914 | 65.53443 | 39867 ft | 436 kts | 292° |
| 2026-04-21 14:59 | 22.44253 | 65.47437 | 39867 ft | 435 kts | 292° |
| 2026-04-21 15:00 | 22.46601 | 65.41396 | 39870 ft | 435 kts | 292° |
| 2026-04-21 15:00 | 22.48951 | 65.35343 | 39872 ft | 435 kts | 292° |
| 2026-04-21 15:01 | 22.51279 | 65.29341 | 39866 ft | 435 kts | 292° |
| 2026-04-21 15:01 | 22.53623 | 65.23287 | 39867 ft | 435 kts | 292° |
| 2026-04-21 15:02 | 22.55965 | 65.17234 | 39866 ft | 435 kts | 292° |
| 2026-04-21 15:02 | 22.58300 | 65.11187 | 39868 ft | 435 kts | 292° |
| 2026-04-21 15:03 | 22.60636 | 65.05132 | 39865 ft | 435 kts | 292° |
| 2026-04-21 15:03 | 22.62952 | 64.99121 | 39863 ft | 435 kts | 292° |
| 2026-04-21 15:04 | 22.65285 | 64.93058 | 39864 ft | 436 kts | 292° |
| 2026-04-21 15:04 | 22.67617 | 64.86988 | 39862 ft | 436 kts | 292° |
| 2026-04-21 15:05 | 22.69930 | 64.80960 | 39862 ft | 436 kts | 292° |
| 2026-04-21 15:05 | 22.73415 | 64.71865 | 39861 ft | 436 kts | 292° |
| 2026-04-21 15:06 | 22.75740 | 64.65785 | 39863 ft | 436 kts | 292° |
| 2026-04-21 15:06 | 22.78047 | 64.59747 | 39862 ft | 436 kts | 292° |
| 2026-04-21 15:07 | 22.80363 | 64.53674 | 39863 ft | 436 kts | 292° |
| 2026-04-21 15:07 | 22.82677 | 64.47601 | 39859 ft | 436 kts | 292° |
| 2026-04-21 15:08 | 22.84990 | 64.41521 | 39864 ft | 436 kts | 292° |
| 2026-04-21 15:08 | 22.87300 | 64.35441 | 39860 ft | 435 kts | 292° |
| 2026-04-21 15:09 | 22.89592 | 64.29401 | 39861 ft | 436 kts | 292° |
| 2026-04-21 15:09 | 22.91900 | 64.23309 | 39862 ft | 436 kts | 292° |
| 2026-04-21 15:10 | 22.94205 | 64.17219 | 39864 ft | 436 kts | 292° |
| 2026-04-21 15:10 | 22.96505 | 64.11132 | 39864 ft | 436 kts | 292° |
| 2026-04-21 15:11 | 22.98805 | 64.05038 | 39859 ft | 436 kts | 292° |
| 2026-04-21 15:11 | 23.01105 | 63.98934 | 39860 ft | 437 kts | 292° |
| 2026-04-21 15:12 | 23.03017 | 63.93856 | 39857 ft | 437 kts | 292° |
| 2026-04-21 15:12 | 23.05200 | 63.87700 | 39861 ft | 437 kts | 286° |
| 2026-04-21 15:13 | 23.06311 | 63.81216 | 39858 ft | 437 kts | 278° |
| 2026-04-21 15:13 | 23.06748 | 63.75543 | 39859 ft | 430 kts | 270° |
| 2026-04-21 15:14 | 23.06760 | 63.75350 | 39898 ft | 430 kts | 272° |
| 2026-04-21 15:14 | 23.06934 | 63.72753 | 39880 ft | 428 kts | 277° |
| 2026-04-21 15:15 | 23.07103 | 63.70431 | 39871 ft | 429 kts | 272° |
| 2026-04-21 15:16 | 23.07290 | 63.68053 | 39873 ft | 429 kts | 275° |
| 2026-04-21 15:16 | 23.07303 | 63.67894 | 39878 ft | 429 kts | 268° |
| 2026-04-21 15:17 | 23.07722 | 63.63202 | 39867 ft | 428 kts | 271° |
| 2026-04-21 15:17 | 23.08349 | 63.56766 | 39878 ft | 430 kts | 274° |
| 2026-04-21 15:18 | 23.09106 | 63.50340 | 39874 ft | 432 kts | 265° |
| 2026-04-21 15:18 | 23.09658 | 63.43877 | 39893 ft | 429 kts | 277° |
| 2026-04-21 15:19 | 23.09741 | 63.43078 | 39884 ft | 428 kts | 264° |
| 2026-04-21 15:19 | 23.09748 | 63.42984 | 39878 ft | 428 kts | 265° |
| 2026-04-21 15:19 | 23.09902 | 63.41024 | 39869 ft | 422 kts | 266° |
| 2026-04-21 15:22 | 23.09956 | 63.40327 | 39870 ft | 419 kts | 281° |
| 2026-04-21 15:22 | 23.10352 | 63.37177 | 39873 ft | 422 kts | 280° |
| 2026-04-21 15:22 | 23.11308 | 63.30854 | 39852 ft | 430 kts | 276° |
| 2026-04-21 15:23 | 23.12080 | 63.24393 | 39865 ft | 437 kts | 276° |
| 2026-04-21 15:23 | 23.12725 | 63.17826 | 39867 ft | 437 kts | 276° |
| 2026-04-21 15:24 | 23.13357 | 63.11256 | 39866 ft | 436 kts | 276° |
| 2026-04-21 15:24 | 23.14003 | 63.04682 | 39868 ft | 438 kts | 276° |
| 2026-04-21 15:25 | 23.14652 | 62.98150 | 39868 ft | 438 kts | 276° |
| 2026-04-21 15:25 | 23.15306 | 62.91563 | 39867 ft | 438 kts | 276° |
| 2026-04-21 15:26 | 23.15956 | 62.84980 | 39862 ft | 438 kts | 276° |
| 2026-04-21 15:26 | 23.16602 | 62.78391 | 39863 ft | 439 kts | 277° |
| 2026-04-21 15:27 | 23.17244 | 62.71825 | 39861 ft | 439 kts | 276° |
| 2026-04-21 15:27 | 23.17887 | 62.65219 | 39856 ft | 439 kts | 277° |
| 2026-04-21 15:28 | 23.18527 | 62.58609 | 39863 ft | 440 kts | 276° |
| 2026-04-21 15:28 | 23.19165 | 62.51992 | 39854 ft | 440 kts | 277° |
| 2026-04-21 15:29 | 23.19802 | 62.45362 | 39866 ft | 440 kts | 277° |
| 2026-04-21 15:29 | 23.20431 | 62.38775 | 39860 ft | 440 kts | 277° |
| 2026-04-21 15:30 | 23.21062 | 62.32151 | 39861 ft | 440 kts | 277° |
| 2026-04-21 15:30 | 23.21689 | 62.25527 | 39857 ft | 440 kts | 277° |
| 2026-04-21 15:31 | 23.22313 | 62.18905 | 39861 ft | 440 kts | 277° |
| 2026-04-21 15:31 | 23.22935 | 62.12279 | 39853 ft | 439 kts | 277° |
| 2026-04-21 15:32 | 23.23553 | 62.05670 | 39861 ft | 439 kts | 277° |
| 2026-04-21 15:32 | 23.24165 | 61.99105 | 39852 ft | 439 kts | 277° |
| 2026-04-21 15:33 | 23.24778 | 61.92481 | 39860 ft | 439 kts | 277° |
| 2026-04-21 15:33 | 23.25386 | 61.85871 | 39852 ft | 438 kts | 277° |
| 2026-04-21 15:34 | 23.25992 | 61.79272 | 39851 ft | 438 kts | 277° |
| 2026-04-21 15:34 | 23.26592 | 61.72712 | 39855 ft | 438 kts | 277° |
| 2026-04-21 15:35 | 23.27192 | 61.66119 | 39855 ft | 438 kts | 277° |
| 2026-04-21 15:35 | 23.27789 | 61.59525 | 39858 ft | 438 kts | 277° |
| 2026-04-21 15:36 | 23.28384 | 61.52926 | 39839 ft | 438 kts | 277° |
| 2026-04-21 15:36 | 23.28978 | 61.46331 | 39844 ft | 438 kts | 277° |
| 2026-04-21 15:37 | 23.29569 | 61.39768 | 39845 ft | 438 kts | 277° |
| 2026-04-21 15:37 | 23.30158 | 61.33161 | 39846 ft | 438 kts | 278° |
| 2026-04-21 15:38 | 23.30742 | 61.26556 | 39840 ft | 438 kts | 278° |
| 2026-04-21 15:38 | 23.31319 | 61.19995 | 39840 ft | 438 kts | 278° |
| 2026-04-21 15:39 | 23.32025 | 61.13417 | 39836 ft | 437 kts | 280° |
| 2026-04-21 15:39 | 23.32870 | 61.06857 | 39848 ft | 437 kts | 280° |
| 2026-04-21 15:40 | 23.33714 | 61.00346 | 39835 ft | 436 kts | 281° |
| 2026-04-21 15:40 | 23.34540 | 60.93818 | 39839 ft | 434 kts | 280° |
| 2026-04-21 15:41 | 23.35352 | 60.87316 | 39837 ft | 433 kts | 280° |
| 2026-04-21 15:41 | 23.36159 | 60.80816 | 39831 ft | 433 kts | 280° |
| 2026-04-21 15:42 | 23.36965 | 60.74298 | 39831 ft | 433 kts | 280° |
| 2026-04-21 15:42 | 23.37760 | 60.67848 | 39837 ft | 431 kts | 281° |
| 2026-04-21 15:43 | 23.39301 | 60.61594 | 39832 ft | 426 kts | 292° |
| 2026-04-21 15:43 | 23.41405 | 60.55569 | 39827 ft | 425 kts | 293° |
| 2026-04-21 15:44 | 23.43611 | 60.49589 | 39829 ft | 425 kts | 294° |
| 2026-04-21 15:44 | 23.45818 | 60.43616 | 39822 ft | 425 kts | 294° |
| 2026-04-21 15:45 | 23.47986 | 60.37697 | 39833 ft | 423 kts | 294° |
| 2026-04-21 15:45 | 23.50158 | 60.31739 | 39831 ft | 423 kts | 293° |
| 2026-04-21 15:46 | 23.52331 | 60.25769 | 39824 ft | 423 kts | 294° |
| 2026-04-21 15:46 | 23.54502 | 60.19792 | 39825 ft | 424 kts | 293° |
| 2026-04-21 15:47 | 23.56652 | 60.13865 | 39824 ft | 423 kts | 293° |
| 2026-04-21 15:47 | 23.58810 | 60.07905 | 39822 ft | 421 kts | 293° |
| 2026-04-21 15:48 | 23.60961 | 60.01959 | 39824 ft | 421 kts | 293° |
| 2026-04-21 15:48 | 23.63099 | 59.96045 | 39833 ft | 421 kts | 293° |
| 2026-04-21 15:49 | 23.65247 | 59.90094 | 39815 ft | 421 kts | 293° |
| 2026-04-21 15:49 | 23.67388 | 59.84154 | 39820 ft | 419 kts | 294° |
| 2026-04-21 15:50 | 23.69537 | 59.78260 | 39821 ft | 417 kts | 294° |
| 2026-04-21 15:50 | 23.71677 | 59.72372 | 39821 ft | 417 kts | 294° |
| 2026-04-21 15:51 | 23.73784 | 59.66520 | 39831 ft | 417 kts | 294° |
| 2026-04-21 15:51 | 23.75901 | 59.60612 | 39819 ft | 417 kts | 294° |
| 2026-04-21 15:52 | 23.78010 | 59.54714 | 39822 ft | 415 kts | 293° |
| 2026-04-21 15:52 | 23.80102 | 59.48857 | 39822 ft | 413 kts | 293° |
| 2026-04-21 15:53 | 23.82180 | 59.43034 | 39820 ft | 413 kts | 293° |
| 2026-04-21 15:53 | 23.84269 | 59.37177 | 39830 ft | 414 kts | 293° |
| 2026-04-21 15:54 | 23.86354 | 59.31316 | 39828 ft | 413 kts | 293° |
| 2026-04-21 15:54 | 23.88433 | 59.25464 | 39824 ft | 411 kts | 293° |
| 2026-04-21 15:55 | 23.90485 | 59.19683 | 39827 ft | 410 kts | 293° |
| 2026-04-21 15:55 | 23.92542 | 59.13871 | 39816 ft | 410 kts | 292° |
| 2026-04-21 15:56 | 23.94483 | 59.08013 | 39822 ft | 411 kts | 291° |
| 2026-04-21 15:56 | 23.96360 | 59.02108 | 39809 ft | 411 kts | 291° |
| 2026-04-21 15:57 | 23.98231 | 58.96217 | 39816 ft | 409 kts | 291° |
| 2026-04-21 15:57 | 24.00095 | 58.90385 | 39820 ft | 408 kts | 291° |
| 2026-04-21 15:58 | 24.01974 | 58.84525 | 39822 ft | 408 kts | 291° |
| 2026-04-21 15:58 | 24.03874 | 58.78649 | 39819 ft | 409 kts | 291° |
| 2026-04-21 15:59 | 24.05762 | 58.72770 | 39818 ft | 409 kts | 291° |
| 2026-04-21 15:59 | 24.07635 | 58.66899 | 39819 ft | 409 kts | 291° |
| 2026-04-21 16:00 | 24.09493 | 58.61053 | 39825 ft | 409 kts | 291° |
| 2026-04-21 16:00 | 24.11362 | 58.55164 | 39821 ft | 409 kts | 291° |
| 2026-04-21 16:01 | 24.13224 | 58.49287 | 39824 ft | 409 kts | 291° |
| 2026-04-21 16:01 | 24.14769 | 58.44403 | 39816 ft | 408 kts | 291° |
| 2026-04-21 16:02 | 24.16619 | 58.38546 | 39827 ft | 406 kts | 291° |
| 2026-04-21 16:02 | 24.18469 | 58.32686 | 39818 ft | 406 kts | 291° |
| 2026-04-21 16:03 | 24.20319 | 58.26819 | 39821 ft | 407 kts | 291° |
| 2026-04-21 16:03 | 24.22151 | 58.20994 | 39820 ft | 407 kts | 291° |
| 2026-04-21 16:04 | 24.23993 | 58.15132 | 39820 ft | 406 kts | 290° |
| 2026-04-21 16:04 | 24.25808 | 58.09345 | 39821 ft | 405 kts | 290° |
| 2026-04-21 16:05 | 24.27626 | 58.03543 | 39824 ft | 405 kts | 290° |
| 2026-04-21 16:05 | 24.29433 | 57.97763 | 39717 ft | 391 kts | 290° |
| 2026-04-21 16:06 | 24.31165 | 57.92227 | 39221 ft | 381 kts | 291° |
| 2026-04-21 16:06 | 24.32028 | 57.89473 | 38802 ft | 382 kts | 290° |
| 2026-04-21 16:06 | 24.32890 | 57.86715 | 38375 ft | 382 kts | 290° |
| 2026-04-21 16:07 | 24.33736 | 57.84002 | 37927 ft | 380 kts | 290° |
| 2026-04-21 16:07 | 24.34591 | 57.81257 | 37533 ft | 378 kts | 290° |
| 2026-04-21 16:07 | 24.35442 | 57.78522 | 37124 ft | 379 kts | 290° |
| 2026-04-21 16:07 | 24.36297 | 57.75771 | 36707 ft | 382 kts | 289° |
| 2026-04-21 16:08 | 24.38028 | 57.70192 | 35842 ft | 390 kts | 289° |
| 2026-04-21 16:08 | 24.38895 | 57.67390 | 35388 ft | 394 kts | 289° |
| 2026-04-21 16:08 | 24.39783 | 57.64520 | 34881 ft | 398 kts | 288° |
| 2026-04-21 16:09 | 24.40678 | 57.61622 | 34374 ft | 404 kts | 288° |
| 2026-04-21 16:09 | 24.41587 | 57.58675 | 33842 ft | 410 kts | 288° |
| 2026-04-21 16:09 | 24.42507 | 57.55688 | 33231 ft | 415 kts | 287° |
| 2026-04-21 16:09 | 24.43434 | 57.52674 | 32664 ft | 419 kts | 287° |
| 2026-04-21 16:10 | 24.44370 | 57.49631 | 32085 ft | 421 kts | 287° |
| 2026-04-21 16:10 | 24.45295 | 57.46617 | 31526 ft | 423 kts | 287° |
| 2026-04-21 16:10 | 24.46234 | 57.43561 | 31137 ft | 421 kts | 287° |
| 2026-04-21 16:10 | 24.47170 | 57.40516 | 30744 ft | 419 kts | 286° |
| 2026-04-21 16:11 | 24.48102 | 57.37487 | 30326 ft | 417 kts | 286° |
| 2026-04-21 16:11 | 24.49029 | 57.34472 | 29916 ft | 416 kts | 286° |
| 2026-04-21 16:11 | 24.49953 | 57.31466 | 29454 ft | 414 kts | 286° |
| 2026-04-21 16:11 | 24.50870 | 57.28480 | 29027 ft | 411 kts | 286° |
| 2026-04-21 16:12 | 24.51781 | 57.25512 | 28627 ft | 408 kts | 286° |
| 2026-04-21 16:12 | 24.52682 | 57.22572 | 28200 ft | 404 kts | 286° |
| 2026-04-21 16:12 | 24.53565 | 57.19688 | 27783 ft | 401 kts | 286° |
| 2026-04-21 16:12 | 24.54451 | 57.16796 | 27369 ft | 397 kts | 286° |
| 2026-04-21 16:13 | 24.55329 | 57.13924 | 26965 ft | 394 kts | 286° |
| 2026-04-21 16:13 | 24.56198 | 57.11082 | 26565 ft | 391 kts | 286° |
| 2026-04-21 16:13 | 24.57061 | 57.08256 | 26154 ft | 388 kts | 286° |
| 2026-04-21 16:13 | 24.57916 | 57.05453 | 25749 ft | 385 kts | 286° |
| 2026-04-21 16:14 | 24.58751 | 57.02716 | 25341 ft | 381 kts | 286° |
| 2026-04-21 16:14 | 24.59588 | 56.99967 | 24946 ft | 377 kts | 286° |
| 2026-04-21 16:14 | 24.60419 | 56.97242 | 24558 ft | 374 kts | 286° |
| 2026-04-21 16:14 | 24.61240 | 56.94542 | 24160 ft | 371 kts | 286° |
| 2026-04-21 16:15 | 24.62056 | 56.91858 | 23769 ft | 368 kts | 286° |
| 2026-04-21 16:15 | 24.62865 | 56.89196 | 23369 ft | 365 kts | 286° |
| 2026-04-21 16:15 | 24.63667 | 56.86551 | 22939 ft | 362 kts | 286° |
| 2026-04-21 16:15 | 24.64297 | 56.83907 | 22572 ft | 355 kts | 280° |
| 2026-04-21 16:16 | 24.64763 | 56.81254 | 22203 ft | 353 kts | 279° |
| 2026-04-21 16:16 | 24.65166 | 56.78633 | 21817 ft | 352 kts | 278° |
| 2026-04-21 16:16 | 24.65541 | 56.75977 | 21442 ft | 351 kts | 277° |
| 2026-04-21 16:16 | 24.65898 | 56.73331 | 21095 ft | 349 kts | 277° |
| 2026-04-21 16:17 | 24.66249 | 56.70698 | 20865 ft | 347 kts | 277° |
| 2026-04-21 16:17 | 24.66601 | 56.68071 | 20510 ft | 346 kts | 277° |
| 2026-04-21 16:17 | 24.66953 | 56.65458 | 20147 ft | 344 kts | 277° |
| 2026-04-21 16:17 | 24.67308 | 56.62851 | 19770 ft | 343 kts | 277° |
| 2026-04-21 16:18 | 24.67661 | 56.60265 | 19409 ft | 341 kts | 277° |
| 2026-04-21 16:18 | 24.68010 | 56.57722 | 19046 ft | 339 kts | 277° |
| 2026-04-21 16:18 | 24.68360 | 56.55161 | 18685 ft | 337 kts | 278° |
| 2026-04-21 16:18 | 24.68706 | 56.52622 | 18316 ft | 334 kts | 279° |
| 2026-04-21 16:19 | 24.69050 | 56.50107 | 17951 ft | 331 kts | 279° |
| 2026-04-21 16:19 | 24.69389 | 56.47618 | 17558 ft | 328 kts | 278° |
| 2026-04-21 16:19 | 24.69729 | 56.45133 | 17207 ft | 329 kts | 278° |
| 2026-04-21 16:19 | 24.70069 | 56.42641 | 16834 ft | 329 kts | 278° |
| 2026-04-21 16:20 | 24.70408 | 56.40149 | 16472 ft | 328 kts | 278° |
| 2026-04-21 16:20 | 24.70746 | 56.37661 | 16110 ft | 328 kts | 278° |
| 2026-04-21 16:20 | 24.71079 | 56.35202 | 15738 ft | 328 kts | 278° |
| 2026-04-21 16:20 | 24.71416 | 56.32724 | 15364 ft | 327 kts | 279° |
| 2026-04-21 16:21 | 24.72001 | 56.30301 | 15001 ft | 328 kts | 290° |
| 2026-04-21 16:21 | 24.72919 | 56.27998 | 14622 ft | 328 kts | 293° |
| 2026-04-21 16:21 | 24.73949 | 56.25768 | 14240 ft | 327 kts | 296° |
| 2026-04-21 16:21 | 24.75048 | 56.23579 | 13886 ft | 326 kts | 297° |
| 2026-04-21 16:22 | 24.76169 | 56.21446 | 13733 ft | 316 kts | 297° |
| 2026-04-21 16:22 | 24.77258 | 56.19403 | 13613 ft | 303 kts | 297° |
| 2026-04-21 16:22 | 24.78293 | 56.17461 | 13485 ft | 293 kts | 297° |
| 2026-04-21 16:22 | 24.79304 | 56.15557 | 13349 ft | 283 kts | 297° |
| 2026-04-21 16:23 | 24.80283 | 56.13709 | 13219 ft | 275 kts | 297° |
| 2026-04-21 16:23 | 24.81227 | 56.11911 | 13098 ft | 267 kts | 297° |
| 2026-04-21 16:23 | 24.82138 | 56.10163 | 12941 ft | 261 kts | 297° |
| 2026-04-21 16:23 | 24.83039 | 56.08423 | 12675 ft | 261 kts | 297° |
| 2026-04-21 16:24 | 24.83936 | 56.06685 | 12410 ft | 260 kts | 297° |
| 2026-04-21 16:24 | 24.84827 | 56.04953 | 12154 ft | 259 kts | 297° |
| 2026-04-21 16:24 | 24.85784 | 56.03278 | 11898 ft | 267 kts | 302° |
| 2026-04-21 16:24 | 24.86864 | 56.01569 | 11674 ft | 273 kts | 303° |
| 2026-04-21 16:25 | 24.87956 | 55.99848 | 11430 ft | 272 kts | 300° |
| 2026-04-21 16:25 | 24.88692 | 55.97957 | 11195 ft | 268 kts | 279° |
| 2026-04-21 16:25 | 24.88624 | 55.95938 | 10956 ft | 264 kts | 253° |
| 2026-04-21 16:25 | 24.87817 | 55.94121 | 10726 ft | 264 kts | 238° |
| 2026-04-21 16:26 | 24.86803 | 55.92454 | 10490 ft | 265 kts | 236° |
| 2026-04-21 16:26 | 24.85749 | 55.90786 | 10258 ft | 265 kts | 236° |
| 2026-04-21 16:26 | 24.84701 | 55.89117 | 10028 ft | 265 kts | 236° |
| 2026-04-21 16:26 | 24.83660 | 55.87444 | 9786 ft | 264 kts | 237° |
| 2026-04-21 16:27 | 24.82627 | 55.85772 | 9537 ft | 264 kts | 237° |
| 2026-04-21 16:27 | 24.81598 | 55.84103 | 9306 ft | 263 kts | 237° |
| 2026-04-21 16:27 | 24.80574 | 55.82437 | 9074 ft | 262 kts | 237° |
| 2026-04-21 16:27 | 24.79562 | 55.80787 | 8831 ft | 261 kts | 237° |
| 2026-04-21 16:28 | 24.78549 | 55.79133 | 8632 ft | 260 kts | 237° |
| 2026-04-21 16:28 | 24.77539 | 55.77485 | 8390 ft | 258 kts | 237° |
| 2026-04-21 16:28 | 24.76539 | 55.75854 | 8149 ft | 257 kts | 237° |
| 2026-04-21 16:28 | 24.75554 | 55.74247 | 7955 ft | 256 kts | 237° |
| 2026-04-21 16:29 | 24.74554 | 55.72614 | 7717 ft | 257 kts | 237° |
| 2026-04-21 16:29 | 24.73555 | 55.70986 | 7492 ft | 255 kts | 237° |
| 2026-04-21 16:29 | 24.72566 | 55.69374 | 7268 ft | 254 kts | 237° |
| 2026-04-21 16:29 | 24.71578 | 55.67765 | 7050 ft | 252 kts | 237° |
| 2026-04-21 16:30 | 24.70608 | 55.66185 | 6884 ft | 245 kts | 237° |
| 2026-04-21 16:30 | 24.69662 | 55.64642 | 6675 ft | 242 kts | 237° |
| 2026-04-21 16:30 | 24.68721 | 55.63107 | 6465 ft | 242 kts | 238° |
| 2026-04-21 16:30 | 24.67791 | 55.61569 | 6263 ft | 241 kts | 240° |
| 2026-04-21 16:31 | 24.67201 | 55.59889 | 5995 ft | 240 kts | 264° |
| 2026-04-21 16:31 | 24.67432 | 55.58093 | 5761 ft | 240 kts | 291° |
| 2026-04-21 16:31 | 24.68146 | 55.56425 | 5546 ft | 242 kts | 297° |
| 2026-04-21 16:31 | 24.68836 | 55.54750 | 5333 ft | 239 kts | 290° |
| 2026-04-21 16:32 | 24.69390 | 55.53018 | 5172 ft | 240 kts | 290° |
| 2026-04-21 16:32 | 24.70078 | 55.51344 | 5123 ft | 240 kts | 298° |
| 2026-04-21 16:32 | 24.70951 | 55.49773 | 5121 ft | 242 kts | 303° |
| 2026-04-21 16:32 | 24.71875 | 55.48248 | 5123 ft | 243 kts | 303° |
| 2026-04-21 16:33 | 24.72781 | 55.46672 | 5120 ft | 243 kts | 301° |
| 2026-04-21 16:33 | 24.73652 | 55.45082 | 5121 ft | 243 kts | 300° |
| 2026-04-21 16:33 | 24.74520 | 55.43495 | 5121 ft | 241 kts | 301° |
| 2026-04-21 16:33 | 24.75389 | 55.41923 | 5001 ft | 241 kts | 301° |
| 2026-04-21 16:34 | 24.76262 | 55.40349 | 4737 ft | 241 kts | 301° |
| 2026-04-21 16:34 | 24.77139 | 55.38763 | 4384 ft | 244 kts | 301° |
| 2026-04-21 16:34 | 24.78026 | 55.37154 | 3998 ft | 247 kts | 302° |
| 2026-04-21 16:34 | 24.78911 | 55.35550 | 3663 ft | 241 kts | 302° |
| 2026-04-21 16:35 | 24.79764 | 55.34005 | 3350 ft | 230 kts | 304° |
| 2026-04-21 16:35 | 24.80590 | 55.32515 | 3068 ft | 225 kts | 304° |
| 2026-04-21 16:35 | 24.81374 | 55.31097 | 2802 ft | 215 kts | 304° |
| 2026-04-21 16:35 | 24.82135 | 55.29717 | 2527 ft | 205 kts | 305° |
| 2026-04-21 16:36 | 24.82849 | 55.28425 | 2279 ft | 189 kts | 304° |
| 2026-04-21 16:36 | 24.83510 | 55.27230 | 2043 ft | 176 kts | 306° |
| 2026-04-21 16:36 | 24.84123 | 55.26120 | 1816 ft | 163 kts | 307° |
| 2026-04-21 16:36 | 24.84694 | 55.25085 | 1634 ft | 152 kts | 307° |
| 2026-04-21 16:37 | 24.85223 | 55.24131 | 1430 ft | 143 kts | 306° |
| 2026-04-21 16:37 | 24.85731 | 55.23213 | 1257 ft | 139 kts | 306° |
| 2026-04-21 16:37 | 24.86235 | 55.22301 | 1075 ft | 139 kts | 306° |
| 2026-04-21 16:37 | 24.86740 | 55.21386 | 911 ft | 140 kts | 307° |
| 2026-04-21 16:38 | 24.87247 | 55.20468 | 721 ft | 139 kts | 304° |
| 2026-04-21 16:38 | 24.87744 | 55.19559 | 524 ft | 139 kts | 304° |
| 2026-04-21 16:38 | 24.88249 | 55.18653 | 371 ft | 140 kts | 303° |
| 2026-04-21 16:38 | 24.88748 | 55.17750 | 196 ft | 137 kts | 303° |
| 2026-04-21 16:39 | 24.89195 | 55.16948 | 161 ft | 98 kts | 301° |
| 2026-04-21 16:39 | 24.89448 | 55.16487 | 161 ft | 51 kts | 302° |
| 2026-04-21 16:39 | 24.89555 | 55.16231 | 162 ft | 32 kts | 280° |
| 2026-04-21 16:39 | 24.89568 | 55.16031 | 162 ft | 22 kts | 271° |
| 2026-04-21 16:40 | 24.89566 | 55.15876 | 162 ft | 18 kts | 250° |
| 2026-04-21 16:40 | 24.89470 | 55.15790 | 162 ft | 19 kts | 211° |
| 2026-04-21 16:40 | 24.89357 | 55.15714 | 163 ft | 18 kts | 211° |
| 2026-04-21 16:40 | 24.89257 | 55.15648 | 163 ft | 16 kts | 211° |
| 2026-04-21 16:41 | 24.89190 | 55.15603 | 163 ft | 17 kts | 211° |
| 2026-04-21 16:41 | 24.89043 | 55.15513 | 164 ft | 19 kts | 197° |
| 2026-04-21 16:41 | 24.88910 | 55.15497 | 165 ft | 19 kts | 184° |
| 2026-04-21 16:41 | 24.88803 | 55.15460 | 166 ft | 10 kts | 209° |
| 2026-04-21 16:42 | 24.88753 | 55.15460 | 167 ft | 7 kts | 146° |
| 2026-04-21 16:42 | 24.88727 | 55.15499 | 167 ft | 6 kts | 123° |
| 2026-04-21 16:42 | 24.88715 | 55.15520 | 167 ft | 0 kts | 123° |